Wetterdaten: Samstag, 21.03.2015
Datum Zeit Temp. Aussen +5cm Feuchte Auss Luftdruck Regen Sonnenschein Regendauer Solar Windben
21.03.2015 00:00 2,6 C 1,7 C 94 % 1020,1 hPa 0,0 l/m 0 min 0 min 0 W/m 10,5 km/h (2 Bft)
21.03.2015 00:02 2,6 C 1,7 C 94 % 1020,0 hPa 0,0 l/m 0 min 0 min 0 W/m 10,5 km/h (2 Bft)
21.03.2015 00:06 2,6 C 1,7 C 94 % 1020,1 hPa 0,0 l/m 0 min 0 min 0 W/m 10,5 km/h (2 Bft)
21.03.2015 00:08 2,6 C 1,7 C 94 % 1020,1 hPa 0,0 l/m 0 min 0 min 0 W/m 6,3 km/h (2 Bft)
21.03.2015 00:10 2,6 C 1,7 C 94 % 1020,2 hPa 0,0 l/m 0 min 0 min 0 W/m 6,3 km/h (2 Bft)
21.03.2015 00:12 2,6 C 1,7 C 94 % 1020,0 hPa 0,0 l/m 0 min 0 min 0 W/m 8,4 km/h (2 Bft)
21.03.2015 00:14 2,6 C 1,7 C 94 % 1020,1 hPa 0,0 l/m 0 min 0 min 0 W/m 4,2 km/h (1 Bft)
21.03.2015 00:16 2,6 C 1,7 C 94 % 1020,0 hPa 0,0 l/m 0 min 0 min 0 W/m 4,2 km/h (1 Bft)
21.03.2015 00:18 2,6 C 1,7 C 94 % 1019,9 hPa 0,0 l/m 0 min 0 min 0 W/m 4,2 km/h (1 Bft)
21.03.2015 00:20 2,6 C 1,7 C 94 % 1019,9 hPa 0,0 l/m 0 min 0 min 0 W/m 6,3 km/h (2 Bft)
21.03.2015 00:22 2,6 C 2,2 C 94 % 1019,9 hPa 0,0 l/m 0 min 0 min 0 W/m 4,2 km/h (1 Bft)
21.03.2015 00:24 2,6 C 2,2 C 94 % 1019,9 hPa 0,0 l/m 0 min 0 min 0 W/m 4,2 km/h (1 Bft)
21.03.2015 00:26 2,6 C 2,2 C 94 % 1020,0 hPa 0,0 l/m 0 min 0 min 0 W/m 6,3 km/h (2 Bft)
21.03.2015 00:28 2,6 C 2,2 C 94 % 1019,9 hPa 0,0 l/m 0 min 0 min 0 W/m 6,3 km/h (2 Bft)
21.03.2015 00:30 2,6 C 2,2 C 94 % 1019,8 hPa 0,0 l/m 0 min 0 min 0 W/m 8,4 km/h (2 Bft)
21.03.2015 00:32 2,6 C 2,2 C 94 % 1019,8 hPa 0,0 l/m 0 min 0 min 0 W/m 8,4 km/h (2 Bft)
21.03.2015 00:34 2,6 C 2,2 C 94 % 1019,8 hPa 0,0 l/m 0 min 0 min 0 W/m 14,6 km/h (3 Bft)
21.03.2015 00:36 2,6 C 2,2 C 94 % 1019,8 hPa 0,0 l/m 0 min 0 min 0 W/m 8,4 km/h (2 Bft)
21.03.2015 00:38 2,6 C 2,2 C 94 % 1019,8 hPa 0,0 l/m 0 min 0 min 0 W/m 8,4 km/h (2 Bft)
21.03.2015 00:40 2,6 C 2,2 C 94 % 1019,8 hPa 0,0 l/m 0 min 0 min 0 W/m 4,2 km/h (1 Bft)
21.03.2015 00:42 2,7 C 2,2 C 94 % 1019,8 hPa 0,0 l/m 0 min 0 min 0 W/m 6,3 km/h (2 Bft)
21.03.2015 00:44 2,7 C 2,2 C 94 % 1019,7 hPa 0,0 l/m 0 min 0 min 0 W/m 4,2 km/h (1 Bft)
21.03.2015 00:46 2,7 C 2,2 C 94 % 1019,6 hPa 0,0 l/m 0 min 0 min 0 W/m 4,2 km/h (1 Bft)
21.03.2015 00:48 2,7 C 2,2 C 94 % 1019,6 hPa 0,0 l/m 0 min 0 min 0 W/m 4,2 km/h (1 Bft)
21.03.2015 00:50 2,7 C 2,2 C 94 % 1019,6 hPa 0,0 l/m 0 min 0 min 0 W/m 6,3 km/h (2 Bft)
21.03.2015 00:52 2,7 C 2,2 C 94 % 1019,7 hPa 0,0 l/m 0 min 0 min 0 W/m 6,3 km/h (2 Bft)
21.03.2015 00:54 2,7 C 2,2 C 95 % 1019,7 hPa 0,0 l/m 0 min 0 min 0 W/m 8,4 km/h (2 Bft)
21.03.2015 00:56 2,7 C 2,2 C 94 % 1019,6 hPa 0,0 l/m 0 min 0 min 0 W/m 8,4 km/h (2 Bft)
21.03.2015 00:58 2,7 C 2,2 C 94 % 1019,4 hPa 0,0 l/m 0 min 0 min 0 W/m 6,3 km/h (2 Bft)
21.03.2015 01:00 2,7 C 2,2 C 94 % 1019,4 hPa 0,0 l/m 0 min 0 min 0 W/m 4,2 km/h (1 Bft)
21.03.2015 01:02 2,7 C 2,2 C 94 % 1019,5 hPa 0,0 l/m 0 min 0 min 0 W/m 6,3 km/h (2 Bft)
21.03.2015 01:04 2,7 C 2,2 C 94 % 1019,5 hPa 0,0 l/m 0 min 0 min 0 W/m 6,3 km/h (2 Bft)
21.03.2015 01:06 2,7 C 2,2 C 94 % 1019,4 hPa 0,0 l/m 0 min 0 min 0 W/m 4,2 km/h (1 Bft)
21.03.2015 01:08 2,7 C 2,2 C 95 % 1019,5 hPa 0,0 l/m 0 min 0 min 0 W/m 8,4 km/h (2 Bft)
21.03.2015 01:10 2,7 C 2,2 C 95 % 1019,5 hPa 0,0 l/m 0 min 0 min 0 W/m 6,3 km/h (2 Bft)
21.03.2015 01:12 2,7 C 2,2 C 95 % 1019,5 hPa 0,0 l/m 0 min 0 min 0 W/m 4,2 km/h (1 Bft)
21.03.2015 01:14 2,7 C 2,2 C 95 % 1019,3 hPa 0,0 l/m 0 min 0 min 0 W/m 4,2 km/h (1 Bft)
21.03.2015 01:16 2,8 C 2,2 C 95 % 1019,2 hPa 0,0 l/m 0 min 0 min 0 W/m 6,3 km/h (2 Bft)
21.03.2015 01:18 2,8 C 2,2 C 95 % 1019,2 hPa 0,0 l/m 0 min 0 min 0 W/m 6,3 km/h (2 Bft)
21.03.2015 01:20 2,8 C 2,2 C 95 % 1019,2 hPa 0,0 l/m 0 min 0 min 0 W/m 4,2 km/h (1 Bft)
21.03.2015 01:22 2,8 C 2,2 C 95 % 1019,2 hPa 0,0 l/m 0 min 0 min 0 W/m 4,2 km/h (1 Bft)
21.03.2015 01:24 2,8 C 2,2 C 95 % 1019,2 hPa 0,0 l/m 0 min 0 min 0 W/m 6,3 km/h (2 Bft)
21.03.2015 01:26 2,8 C 2,2 C 95 % 1019,3 hPa 0,0 l/m 0 min 0 min 0 W/m 6,3 km/h (2 Bft)
21.03.2015 01:28 2,8 C 2,2 C 95 % 1019,2 hPa 0,0 l/m 0 min 0 min 0 W/m 4,2 km/h (1 Bft)
21.03.2015 01:30 2,8 C 2,2 C 95 % 1019,1 hPa 0,0 l/m 0 min 0 min 0 W/m 4,2 km/h (1 Bft)
21.03.2015 01:32 2,8 C 2,2 C 95 % 1019,1 hPa 0,0 l/m 0 min 0 min 0 W/m 2,1 km/h (1 Bft)
21.03.2015 01:34 2,8 C 2,2 C 95 % 1019,1 hPa 0,0 l/m 0 min 0 min 0 W/m 4,2 km/h (1 Bft)
21.03.2015 01:36 2,8 C 2,2 C 95 % 1019,1 hPa 0,0 l/m 0 min 0 min 0 W/m 4,2 km/h (1 Bft)
21.03.2015 01:38 2,8 C 2,2 C 95 % 1019,1 hPa 0,0 l/m 0 min 0 min 0 W/m 6,3 km/h (2 Bft)
21.03.2015 01:40 2,8 C 2,2 C 95 % 1019,1 hPa 0,0 l/m 0 min 0 min 0 W/m 2,1 km/h (1 Bft)
21.03.2015 01:42 2,8 C 2,2 C 95 % 1019,0 hPa 0,0 l/m 0 min 0 min 0 W/m 4,2 km/h (1 Bft)
21.03.2015 01:44 2,8 C 2,2 C 95 % 1019,1 hPa 0,0 l/m 0 min 0 min 0 W/m 8,4 km/h (2 Bft)
21.03.2015 01:46 2,9 C 2,2 C 95 % 1019,0 hPa 0,0 l/m 0 min 0 min 0 W/m 6,3 km/h (2 Bft)
21.03.2015 01:48 2,9 C 2,2 C 95 % 1019,0 hPa 0,0 l/m 0 min 0 min 0 W/m 6,3 km/h (2 Bft)
21.03.2015 01:50 2,9 C 2,2 C 95 % 1018,9 hPa 0,0 l/m 0 min 0 min 0 W/m 4,2 km/h (1 Bft)
21.03.2015 01:52 2,9 C 2,2 C 95 % 1018,9 hPa 0,0 l/m 0 min 0 min 0 W/m 4,2 km/h (1 Bft)
21.03.2015 01:54 2,9 C 2,2 C 95 % 1018,9 hPa 0,0 l/m 0 min 0 min 0 W/m 4,2 km/h (1 Bft)
21.03.2015 01:56 2,9 C 2,2 C 95 % 1018,9 hPa 0,0 l/m 0 min 0 min 0 W/m 4,2 km/h (1 Bft)
21.03.2015 01:58 2,9 C 2,2 C 95 % 1018,9 hPa 0,0 l/m 0 min 0 min 0 W/m 6,3 km/h (2 Bft)
21.03.2015 02:00 2,9 C 2,8 C 95 % 1018,9 hPa 0,0 l/m 0 min 0 min 0 W/m 6,3 km/h (2 Bft)
21.03.2015 02:02 2,9 C 2,8 C 95 % 1018,9 hPa 0,0 l/m 0 min 0 min 0 W/m 6,3 km/h (2 Bft)
21.03.2015 02:04 3,0 C 2,8 C 95 % 1018,9 hPa 0,0 l/m 0 min 0 min 0 W/m 4,2 km/h (1 Bft)
21.03.2015 02:06 3,0 C 2,8 C 95 % 1018,9 hPa 0,0 l/m 0 min 0 min 0 W/m 2,1 km/h (1 Bft)
21.03.2015 02:08 3,0 C 2,8 C 95 % 1018,9 hPa 0,0 l/m 0 min 0 min 0 W/m 8,4 km/h (2 Bft)
21.03.2015 02:10 3,1 C 2,8 C 95 % 1018,9 hPa 0,0 l/m 0 min 0 min 0 W/m 14,6 km/h (3 Bft)
21.03.2015 02:12 3,1 C 2,8 C 95 % 1018,8 hPa 0,0 l/m 0 min 0 min 0 W/m 6,3 km/h (2 Bft)
21.03.2015 02:14 3,1 C 2,8 C 95 % 1018,9 hPa 0,0 l/m 0 min 0 min 0 W/m 10,5 km/h (2 Bft)
21.03.2015 02:16 3,2 C 2,8 C 95 % 1018,8 hPa 0,0 l/m 0 min 0 min 0 W/m 10,5 km/h (2 Bft)
21.03.2015 02:18 3,2 C 2,8 C 95 % 1018,8 hPa 0,0 l/m 0 min 0 min 0 W/m 10,5 km/h (2 Bft)
21.03.2015 02:20 3,2 C 2,8 C 95 % 1018,8 hPa 0,0 l/m 0 min 0 min 0 W/m 10,5 km/h (2 Bft)
21.03.2015 02:22 3,2 C 2,8 C 95 % 1018,8 hPa 0,0 l/m 0 min 0 min 0 W/m 10,5 km/h (2 Bft)
21.03.2015 02:24 3,3 C 2,8 C 95 % 1018,8 hPa 0,0 l/m 0 min 0 min 0 W/m 10,5 km/h (2 Bft)
21.03.2015 02:26 3,3 C 2,8 C 95 % 1018,8 hPa 0,0 l/m 0 min 0 min 0 W/m 10,5 km/h (2 Bft)
21.03.2015 02:28 3,3 C 2,8 C 95 % 1018,8 hPa 0,0 l/m 0 min 0 min 0 W/m 10,5 km/h (2 Bft)
21.03.2015 02:30 3,3 C 2,8 C 95 % 1018,8 hPa 0,0 l/m 0 min 0 min 0 W/m 10,5 km/h (2 Bft)
21.03.2015 02:32 3,3 C 2,8 C 95 % 1018,8 hPa 0,0 l/m 0 min 0 min 0 W/m 14,6 km/h (3 Bft)
21.03.2015 02:34 3,4 C 2,8 C 95 % 1018,8 hPa 0,0 l/m 0 min 0 min 0 W/m 12,6 km/h (3 Bft)
21.03.2015 02:36 3,4 C 2,8 C 95 % 1018,8 hPa 0,0 l/m 0 min 0 min 0 W/m 12,6 km/h (3 Bft)
21.03.2015 02:38 3,4 C 2,8 C 95 % 1018,7 hPa 0,0 l/m 0 min 0 min 0 W/m 10,5 km/h (2 Bft)
21.03.2015 02:40 3,4 C 2,8 C 95 % 1018,7 hPa 0,0 l/m 0 min 0 min 0 W/m 8,4 km/h (2 Bft)
21.03.2015 02:42 3,4 C 2,8 C 95 % 1018,7 hPa 0,0 l/m 0 min 0 min 0 W/m 6,3 km/h (2 Bft)
21.03.2015 02:44 3,4 C 2,8 C 95 % 1018,7 hPa 0,0 l/m 0 min 0 min 0 W/m 6,3 km/h (2 Bft)
21.03.2015 02:46 3,4 C 2,8 C 95 % 1018,6 hPa 0,0 l/m 0 min 0 min 0 W/m 8,4 km/h (2 Bft)
21.03.2015 02:48 3,4 C 2,8 C 95 % 1018,5 hPa 0,0 l/m 0 min 0 min 0 W/m 8,4 km/h (2 Bft)
21.03.2015 02:50 3,4 C 2,8 C 95 % 1018,5 hPa 0,0 l/m 0 min 0 min 0 W/m 12,6 km/h (3 Bft)
21.03.2015 02:52 3,5 C 2,8 C 95 % 1018,6 hPa 0,0 l/m 0 min 0 min 0 W/m 10,5 km/h (2 Bft)
21.03.2015 02:54 3,5 C 2,8 C 95 % 1018,5 hPa 0,0 l/m 0 min 0 min 0 W/m 10,5 km/h (2 Bft)
21.03.2015 02:56 3,5 C 2,8 C 95 % 1018,5 hPa 0,0 l/m 0 min 0 min 0 W/m 10,5 km/h (2 Bft)
21.03.2015 02:58 3,5 C 2,8 C 95 % 1018,5 hPa 0,0 l/m 0 min 0 min 0 W/m 8,4 km/h (2 Bft)
21.03.2015 03:00 3,5 C 2,8 C 95 % 1018,5 hPa 0,0 l/m 0 min 0 min 0 W/m 14,6 km/h (3 Bft)
21.03.2015 03:02 3,6 C 2,8 C 95 % 1018,4 hPa 0,0 l/m 0 min 0 min 0 W/m 12,6 km/h (3 Bft)
21.03.2015 03:04 3,6 C 2,8 C 95 % 1018,4 hPa 0,0 l/m 0 min 0 min 0 W/m 8,4 km/h (2 Bft)
21.03.2015 03:06 3,6 C 2,8 C 95 % 1018,5 hPa 0,0 l/m 0 min 0 min 0 W/m 10,5 km/h (2 Bft)
21.03.2015 03:08 3,6 C 2,8 C 95 % 1018,4 hPa 0,0 l/m 0 min 0 min 0 W/m 14,6 km/h (3 Bft)
21.03.2015 03:10 3,6 C 2,8 C 95 % 1018,3 hPa 0,0 l/m 0 min 0 min 0 W/m 12,6 km/h (3 Bft)
21.03.2015 03:12 3,6 C 2,8 C 95 % 1018,2 hPa 0,0 l/m 0 min 0 min 0 W/m 10,5 km/h (2 Bft)
21.03.2015 03:14 3,6 C 2,8 C 95 % 1018,2 hPa 0,0 l/m 0 min 0 min 0 W/m 8,4 km/h (2 Bft)
21.03.2015 03:16 3,6 C 2,8 C 95 % 1018,0 hPa 0,0 l/m 0 min 0 min 0 W/m 8,4 km/h (2 Bft)
21.03.2015 03:18 3,6 C 2,8 C 95 % 1018,0 hPa 0,0 l/m 0 min 0 min 0 W/m 8,4 km/h (2 Bft)
21.03.2015 03:20 3,6 C 2,8 C 95 % 1018,0 hPa 0,0 l/m 0 min 0 min 0 W/m 14,6 km/h (3 Bft)
21.03.2015 03:22 3,6 C 2,8 C 95 % 1018,0 hPa 0,0 l/m 0 min 0 min 0 W/m 10,5 km/h (2 Bft)
21.03.2015 03:24 3,6 C 2,8 C 95 % 1018,0 hPa 0,0 l/m 0 min 0 min 0 W/m 10,5 km/h (2 Bft)
21.03.2015 03:26 3,6 C 2,8 C 95 % 1017,9 hPa 0,0 l/m 0 min 0 min 0 W/m 16,7 km/h (3 Bft)
21.03.2015 03:28 3,6 C 2,8 C 95 % 1017,9 hPa 0,0 l/m 0 min 0 min 0 W/m 12,6 km/h (3 Bft)
21.03.2015 03:30 3,7 C 2,8 C 95 % 1017,8 hPa 0,0 l/m 0 min 0 min 0 W/m 12,6 km/h (3 Bft)
21.03.2015 03:32 3,7 C 2,8 C 95 % 1017,8 hPa 0,0 l/m 0 min 0 min 0 W/m 12,6 km/h (3 Bft)
21.03.2015 03:34 3,7 C 2,8 C 95 % 1017,9 hPa 0,0 l/m 0 min 0 min 0 W/m 8,4 km/h (2 Bft)
21.03.2015 03:36 3,7 C 2,8 C 95 % 1018,0 hPa 0,0 l/m 0 min 0 min 0 W/m 12,6 km/h (3 Bft)
21.03.2015 03:38 3,7 C 2,8 C 95 % 1017,9 hPa 0,0 l/m 0 min 0 min 0 W/m 10,5 km/h (2 Bft)
21.03.2015 03:40 3,7 C 2,8 C 95 % 1017,9 hPa 0,0 l/m 0 min 0 min 0 W/m 12,6 km/h (3 Bft)
21.03.2015 03:42 3,7 C 2,8 C 95 % 1017,8 hPa 0,0 l/m 0 min 0 min 0 W/m 10,5 km/h (2 Bft)
21.03.2015 03:44 3,7 C 2,8 C 95 % 1017,9 hPa 0,0 l/m 0 min 0 min 0 W/m 12,6 km/h (3 Bft)
21.03.2015 03:46 3,7 C 2,8 C 95 % 1017,9 hPa 0,0 l/m 0 min 0 min 0 W/m 12,6 km/h (3 Bft)
21.03.2015 03:48 3,7 C 2,8 C 95 % 1017,9 hPa 0,0 l/m 0 min 0 min 0 W/m 10,5 km/h (2 Bft)
21.03.2015 03:50 3,7 C 2,8 C 95 % 1017,9 hPa 0,0 l/m 0 min 0 min 0 W/m 10,5 km/h (2 Bft)
21.03.2015 03:52 3,7 C 2,8 C 95 % 1017,8 hPa 0,0 l/m 0 min 0 min 0 W/m 10,5 km/h (2 Bft)
21.03.2015 03:54 3,7 C 2,8 C 95 % 1017,7 hPa 0,0 l/m 0 min 0 min 0 W/m 8,4 km/h (2 Bft)
21.03.2015 03:56 3,7 C 2,8 C 95 % 1017,8 hPa 0,0 l/m 0 min 0 min 0 W/m 12,6 km/h (3 Bft)
21.03.2015 03:58 3,7 C 2,8 C 95 % 1017,8 hPa 0,0 l/m 0 min 0 min 0 W/m 14,6 km/h (3 Bft)
21.03.2015 04:00 3,7 C 2,8 C 95 % 1017,7 hPa 0,0 l/m 0 min 0 min 0 W/m 12,6 km/h (3 Bft)
21.03.2015 04:02 3,7 C 2,8 C 95 % 1017,7 hPa 0,0 l/m 0 min 0 min 0 W/m 12,6 km/h (3 Bft)
21.03.2015 04:04 3,7 C 2,8 C 95 % 1017,8 hPa 0,0 l/m 0 min 0 min 0 W/m 10,5 km/h (2 Bft)
21.03.2015 04:06 3,7 C 2,8 C 94 % 1017,9 hPa 0,0 l/m 0 min 0 min 0 W/m 10,5 km/h (2 Bft)
21.03.2015 04:08 3,7 C 2,8 C 94 % 1017,8 hPa 0,0 l/m 0 min 0 min 0 W/m 6,3 km/h (2 Bft)
21.03.2015 04:10 3,7 C 2,8 C 94 % 1017,8 hPa 0,0 l/m 0 min 0 min 0 W/m 10,5 km/h (2 Bft)
21.03.2015 04:12 3,7 C 2,8 C 94 % 1017,7 hPa 0,0 l/m 0 min 0 min 0 W/m 8,4 km/h (2 Bft)
21.03.2015 04:14 3,7 C 2,8 C 94 % 1017,8 hPa 0,0 l/m 0 min 0 min 0 W/m 10,5 km/h (2 Bft)
21.03.2015 04:16 3,7 C 2,8 C 94 % 1017,9 hPa 0,0 l/m 0 min 0 min 0 W/m 8,4 km/h (2 Bft)
21.03.2015 04:18 3,7 C 2,8 C 94 % 1017,9 hPa 0,0 l/m 0 min 0 min 0 W/m 10,5 km/h (2 Bft)
21.03.2015 04:20 3,7 C 2,8 C 94 % 1017,7 hPa 0,0 l/m 0 min 0 min 0 W/m 12,6 km/h (3 Bft)
21.03.2015 04:22 3,7 C 2,8 C 94 % 1017,7 hPa 0,0 l/m 0 min 0 min 0 W/m 16,7 km/h (3 Bft)
21.03.2015 04:24 3,7 C 2,8 C 94 % 1017,6 hPa 0,0 l/m 0 min 0 min 0 W/m 12,6 km/h (3 Bft)
21.03.2015 04:26 3,7 C 2,8 C 94 % 1017,7 hPa 0,0 l/m 0 min 0 min 0 W/m 10,5 km/h (2 Bft)
21.03.2015 04:28 3,7 C 2,8 C 94 % 1017,7 hPa 0,0 l/m 0 min 0 min 0 W/m 12,6 km/h (3 Bft)
21.03.2015 04:30 3,7 C 2,8 C 94 % 1017,7 hPa 0,0 l/m 0 min 0 min 0 W/m 10,5 km/h (2 Bft)
21.03.2015 04:32 3,7 C 2,8 C 94 % 1017,7 hPa 0,0 l/m 0 min 0 min 0 W/m 12,6 km/h (3 Bft)
21.03.2015 04:34 3,7 C 2,8 C 94 % 1017,7 hPa 0,0 l/m 0 min 0 min 0 W/m 12,6 km/h (3 Bft)
21.03.2015 04:36 3,7 C 2,8 C 94 % 1017,7 hPa 0,0 l/m 0 min 0 min 0 W/m 12,6 km/h (3 Bft)
21.03.2015 04:38 3,7 C 2,8 C 94 % 1017,6 hPa 0,0 l/m 0 min 0 min 0 W/m 12,6 km/h (3 Bft)
21.03.2015 04:40 3,7 C 2,8 C 94 % 1017,6 hPa 0,0 l/m 0 min 0 min 0 W/m 12,6 km/h (3 Bft)
21.03.2015 04:42 3,7 C 2,8 C 94 % 1017,6 hPa 0,0 l/m 0 min 0 min 0 W/m 12,6 km/h (3 Bft)
21.03.2015 04:44 3,7 C 2,8 C 94 % 1017,6 hPa 0,0 l/m 0 min 0 min 0 W/m 16,7 km/h (3 Bft)
21.03.2015 04:46 3,7 C 2,8 C 94 % 1017,6 hPa 0,0 l/m 0 min 0 min 0 W/m 16,7 km/h (3 Bft)
21.03.2015 04:48 3,7 C 2,8 C 94 % 1017,6 hPa 0,0 l/m 0 min 0 min 0 W/m 14,6 km/h (3 Bft)
21.03.2015 04:50 3,7 C 2,8 C 94 % 1017,5 hPa 0,0 l/m 0 min 0 min 0 W/m 16,7 km/h (3 Bft)
21.03.2015 04:52 3,7 C 2,8 C 94 % 1017,5 hPa 0,0 l/m 0 min 0 min 0 W/m 18,8 km/h (3 Bft)
21.03.2015 04:54 3,7 C 2,8 C 94 % 1017,5 hPa 0,0 l/m 0 min 0 min 0 W/m 16,7 km/h (3 Bft)
21.03.2015 04:56 3,7 C 2,8 C 94 % 1017,5 hPa 0,0 l/m 0 min 0 min 0 W/m 14,6 km/h (3 Bft)
21.03.2015 04:58 3,7 C 2,8 C 94 % 1017,3 hPa 0,0 l/m 0 min 0 min 0 W/m 12,6 km/h (3 Bft)
21.03.2015 05:00 3,7 C 2,8 C 94 % 1017,3 hPa 0,0 l/m 0 min 0 min 0 W/m 16,7 km/h (3 Bft)
21.03.2015 05:02 3,7 C 2,8 C 94 % 1017,2 hPa 0,0 l/m 0 min 0 min 0 W/m 12,6 km/h (3 Bft)
21.03.2015 05:04 3,7 C 2,8 C 94 % 1017,2 hPa 0,0 l/m 0 min 2 min 0 W/m 16,7 km/h (3 Bft)
21.03.2015 05:06 3,7 C 2,2 C 94 % 1017,1 hPa 0,0 l/m 0 min 2 min 0 W/m 10,5 km/h (2 Bft)
21.03.2015 05:08 3,7 C 2,2 C 94 % 1017,1 hPa 0,0 l/m 0 min 2 min 0 W/m 10,5 km/h (2 Bft)
21.03.2015 05:10 3,7 C 2,2 C 94 % 1017,0 hPa 0,0 l/m 0 min 2 min 0 W/m 14,6 km/h (3 Bft)
21.03.2015 05:12 3,7 C 2,2 C 94 % 1017,0 hPa 0,0 l/m 0 min 2 min 0 W/m 18,8 km/h (3 Bft)
21.03.2015 05:14 3,7 C 2,2 C 94 % 1017,0 hPa 0,0 l/m 0 min 2 min 0 W/m 12,6 km/h (3 Bft)
21.03.2015 05:16 3,7 C 2,2 C 94 % 1016,9 hPa 0,0 l/m 0 min 2 min 0 W/m 8,4 km/h (2 Bft)
21.03.2015 05:18 3,7 C 2,2 C 94 % 1017,0 hPa 0,0 l/m 0 min 2 min 0 W/m 10,5 km/h (2 Bft)
21.03.2015 05:20 3,7 C 2,2 C 94 % 1017,0 hPa 0,0 l/m 0 min 2 min 0 W/m 16,7 km/h (3 Bft)
21.03.2015 05:22 3,7 C 2,2 C 94 % 1017,0 hPa 0,0 l/m 0 min 2 min 0 W/m 10,5 km/h (2 Bft)
21.03.2015 05:24 3,7 C 2,2 C 94 % 1017,0 hPa 0,0 l/m 0 min 0 min 0 W/m 10,5 km/h (2 Bft)
21.03.2015 05:26 3,7 C 2,2 C 94 % 1017,0 hPa 0,0 l/m 0 min 2 min 0 W/m 16,7 km/h (3 Bft)
21.03.2015 05:28 3,7 C 2,2 C 94 % 1017,0 hPa 0,0 l/m 0 min 0 min 0 W/m 14,6 km/h (3 Bft)
21.03.2015 05:30 3,7 C 2,2 C 94 % 1017,0 hPa 0,0 l/m 0 min 2 min 0 W/m 14,6 km/h (3 Bft)
21.03.2015 05:32 3,7 C 2,2 C 94 % 1017,0 hPa 0,0 l/m 0 min 0 min 0 W/m 16,7 km/h (3 Bft)
21.03.2015 05:34 3,7 C 2,2 C 94 % 1017,0 hPa 0,0 l/m 0 min 0 min 0 W/m 14,6 km/h (3 Bft)
21.03.2015 05:36 3,7 C 2,2 C 94 % 1016,9 hPa 0,0 l/m 0 min 0 min 0 W/m 10,5 km/h (2 Bft)
21.03.2015 05:38 3,7 C 2,2 C 94 % 1017,0 hPa 0,0 l/m 0 min 2 min 0 W/m 12,6 km/h (3 Bft)
21.03.2015 05:40 3,7 C 2,2 C 94 % 1017,0 hPa 0,0 l/m 0 min 2 min 0 W/m 12,6 km/h (3 Bft)
21.03.2015 05:42 3,7 C 2,2 C 94 % 1016,9 hPa 0,0 l/m 0 min 2 min 0 W/m 10,5 km/h (2 Bft)
21.03.2015 05:44 3,7 C 2,2 C 94 % 1017,0 hPa 0,0 l/m 0 min 0 min 0 W/m 12,6 km/h (3 Bft)
21.03.2015 05:46 3,7 C 2,2 C 94 % 1017,0 hPa 0,0 l/m 0 min 0 min 0 W/m 14,6 km/h (3 Bft)
21.03.2015 05:48 3,7 C 2,2 C 94 % 1017,0 hPa 0,0 l/m 0 min 0 min 0 W/m 10,5 km/h (2 Bft)
21.03.2015 05:50 3,7 C 2,2 C 94 % 1017,0 hPa 0,0 l/m 0 min 0 min 0 W/m 20,9 km/h (4 Bft)
21.03.2015 05:52 3,7 C 2,2 C 94 % 1016,9 hPa 0,0 l/m 0 min 2 min 0 W/m 12,6 km/h (3 Bft)
21.03.2015 05:54 3,7 C 2,2 C 94 % 1016,9 hPa 0,0 l/m 0 min 2 min 0 W/m 14,6 km/h (3 Bft)
21.03.2015 05:56 3,7 C 2,2 C 94 % 1016,9 hPa 0,0 l/m 0 min 0 min 0 W/m 14,6 km/h (3 Bft)
21.03.2015 05:58 3,7 C 2,2 C 94 % 1016,9 hPa 0,0 l/m 0 min 0 min 0 W/m 10,5 km/h (2 Bft)
21.03.2015 06:00 3,7 C 2,2 C 94 % 1016,9 hPa 0,0 l/m 0 min 0 min 0 W/m 14,6 km/h (3 Bft)
21.03.2015 06:02 3,7 C 2,2 C 94 % 1016,9 hPa 0,2 l/m 0 min 2 min 0 W/m 18,8 km/h (3 Bft)
21.03.2015 06:06 3,6 C 2,2 C 94 % 1016,9 hPa 0,0 l/m 0 min 2 min 0 W/m 14,6 km/h (3 Bft)
21.03.2015 06:08 3,6 C 2,2 C 94 % 1016,9 hPa 0,0 l/m 0 min 2 min 0 W/m 14,6 km/h (3 Bft)
21.03.2015 06:10 3,6 C 2,2 C 94 % 1016,9 hPa 0,0 l/m 0 min 2 min 0 W/m 14,6 km/h (3 Bft)
21.03.2015 06:12 3,6 C 2,2 C 94 % 1016,9 hPa 0,0 l/m 0 min 2 min 0 W/m 16,7 km/h (3 Bft)
21.03.2015 06:14 3,6 C 2,2 C 94 % 1016,9 hPa 0,0 l/m 0 min 2 min 0 W/m 12,6 km/h (3 Bft)
21.03.2015 06:16 3,6 C 2,2 C 94 % 1016,8 hPa 0,0 l/m 0 min 2 min 0 W/m 14,6 km/h (3 Bft)
21.03.2015 06:18 3,6 C 2,2 C 94 % 1016,9 hPa 0,0 l/m 0 min 2 min 0 W/m 12,6 km/h (3 Bft)
21.03.2015 06:20 3,6 C 2,2 C 94 % 1016,8 hPa 0,0 l/m 0 min 2 min 0 W/m 14,6 km/h (3 Bft)
21.03.2015 06:22 3,6 C 2,2 C 94 % 1016,8 hPa 0,0 l/m 0 min 2 min 0 W/m 12,6 km/h (3 Bft)
21.03.2015 06:24 3,6 C 2,2 C 94 % 1016,8 hPa 0,0 l/m 0 min 2 min 0 W/m 14,6 km/h (3 Bft)
21.03.2015 06:26 3,6 C 2,2 C 94 % 1016,8 hPa 0,0 l/m 0 min 2 min 0 W/m 12,6 km/h (3 Bft)
21.03.2015 06:28 3,6 C 2,2 C 94 % 1016,8 hPa 0,0 l/m 0 min 2 min 0 W/m 18,8 km/h (3 Bft)
21.03.2015 06:30 3,6 C 2,2 C 94 % 1016,9 hPa 0,2 l/m 0 min 2 min 0 W/m 18,8 km/h (3 Bft)
21.03.2015 06:32 3,6 C 2,2 C 94 % 1016,8 hPa 0,0 l/m 0 min 2 min 0 W/m 16,7 km/h (3 Bft)
21.03.2015 06:34 3,6 C 2,2 C 94 % 1016,7 hPa 0,0 l/m 0 min 2 min 0 W/m 16,7 km/h (3 Bft)
21.03.2015 06:36 3,6 C 2,2 C 95 % 1016,7 hPa 0,0 l/m 0 min 2 min 0 W/m 16,7 km/h (3 Bft)
21.03.2015 06:38 3,6 C 2,2 C 95 % 1016,8 hPa 0,0 l/m 0 min 0 min 0 W/m 20,9 km/h (4 Bft)
21.03.2015 06:40 3,6 C 2,2 C 95 % 1016,8 hPa 0,0 l/m 0 min 2 min 0 W/m 16,7 km/h (3 Bft)
21.03.2015 06:42 3,6 C 2,2 C 95 % 1016,8 hPa 0,0 l/m 0 min 0 min 0 W/m 18,8 km/h (3 Bft)
21.03.2015 06:44 3,6 C 2,2 C 95 % 1016,9 hPa 0,0 l/m 0 min 0 min 0 W/m 23,0 km/h (4 Bft)
21.03.2015 06:46 3,6 C 2,2 C 95 % 1016,9 hPa 0,0 l/m 0 min 0 min 0 W/m 25,1 km/h (4 Bft)
21.03.2015 06:48 3,6 C 2,2 C 95 % 1016,9 hPa 0,0 l/m 0 min 0 min 0 W/m 16,7 km/h (3 Bft)
21.03.2015 06:50 3,6 C 2,2 C 95 % 1016,9 hPa 0,0 l/m 0 min 0 min 0 W/m 20,9 km/h (4 Bft)
21.03.2015 06:52 3,6 C 2,2 C 95 % 1016,9 hPa 0,0 l/m 0 min 0 min 0 W/m 12,6 km/h (3 Bft)
21.03.2015 06:54 3,6 C 2,2 C 95 % 1016,9 hPa 0,0 l/m 0 min 0 min 0 W/m 16,7 km/h (3 Bft)
21.03.2015 06:56 3,6 C 2,2 C 95 % 1016,9 hPa 0,0 l/m 0 min 0 min 0 W/m 23,0 km/h (4 Bft)
21.03.2015 06:58 3,6 C 2,2 C 95 % 1016,9 hPa 0,0 l/m 0 min 0 min 0 W/m 18,8 km/h (3 Bft)
21.03.2015 07:00 3,6 C 2,2 C 95 % 1016,9 hPa 0,0 l/m 0 min 0 min 0 W/m 18,8 km/h (3 Bft)
21.03.2015 07:02 3,6 C 2,2 C 95 % 1016,9 hPa 0,0 l/m 0 min 0 min 0 W/m 18,8 km/h (3 Bft)
21.03.2015 07:04 3,6 C 2,2 C 95 % 1016,9 hPa 0,0 l/m 0 min 0 min 0 W/m 14,6 km/h (3 Bft)
21.03.2015 07:06 3,6 C 2,2 C 95 % 1016,9 hPa 0,0 l/m 0 min 0 min 0 W/m 8,4 km/h (2 Bft)
21.03.2015 07:08 3,6 C 2,2 C 95 % 1016,9 hPa 0,0 l/m 0 min 0 min 0 W/m 18,8 km/h (3 Bft)
21.03.2015 07:10 3,6 C 2,2 C 95 % 1016,9 hPa 0,0 l/m 0 min 0 min 0 W/m 20,9 km/h (4 Bft)
21.03.2015 07:12 3,6 C 2,2 C 95 % 1016,9 hPa 0,0 l/m 0 min 0 min 0 W/m 18,8 km/h (3 Bft)
21.03.2015 07:14 3,6 C 2,2 C 95 % 1016,9 hPa 0,0 l/m 0 min 0 min 0 W/m 10,5 km/h (2 Bft)
21.03.2015 07:16 3,6 C 2,2 C 95 % 1016,9 hPa 0,0 l/m 0 min 0 min 0 W/m 18,8 km/h (3 Bft)
21.03.2015 07:18 3,6 C 2,2 C 95 % 1016,9 hPa 0,0 l/m 0 min 0 min 0 W/m 25,1 km/h (4 Bft)
21.03.2015 07:20 3,6 C 2,2 C 95 % 1016,9 hPa 0,0 l/m 0 min 0 min 2 W/m 23,0 km/h (4 Bft)
21.03.2015 07:22 3,6 C 2,2 C 95 % 1016,9 hPa 0,0 l/m 0 min 0 min 5 W/m 16,7 km/h (3 Bft)
21.03.2015 07:24 3,6 C 2,8 C 95 % 1017,0 hPa 0,0 l/m 0 min 0 min 5 W/m 16,7 km/h (3 Bft)
21.03.2015 07:26 3,6 C 2,2 C 95 % 1016,9 hPa 0,0 l/m 0 min 0 min 5 W/m 20,9 km/h (4 Bft)
21.03.2015 07:28 3,6 C 2,8 C 95 % 1016,9 hPa 0,0 l/m 0 min 0 min 5 W/m 20,9 km/h (4 Bft)
21.03.2015 07:30 3,6 C 2,8 C 95 % 1016,9 hPa 0,0 l/m 0 min 0 min 5 W/m 16,7 km/h (3 Bft)
21.03.2015 07:32 3,6 C 2,2 C 95 % 1016,9 hPa 0,0 l/m 0 min 0 min 6 W/m 18,8 km/h (3 Bft)
21.03.2015 07:34 3,6 C 2,8 C 95 % 1016,9 hPa 0,0 l/m 0 min 0 min 5 W/m 16,7 km/h (3 Bft)
21.03.2015 07:36 3,6 C 2,8 C 95 % 1016,9 hPa 0,0 l/m 0 min 0 min 5 W/m 12,6 km/h (3 Bft)
21.03.2015 07:38 3,7 C 2,8 C 95 % 1016,9 hPa 0,0 l/m 0 min 0 min 7 W/m 14,6 km/h (3 Bft)
21.03.2015 07:40 3,7 C 2,8 C 95 % 1017,0 hPa 0,0 l/m 0 min 2 min 7 W/m 14,6 km/h (3 Bft)
21.03.2015 07:42 3,7 C 2,8 C 95 % 1017,1 hPa 0,0 l/m 0 min 2 min 7 W/m 18,8 km/h (3 Bft)
21.03.2015 07:44 3,7 C 2,8 C 96 % 1017,1 hPa 0,0 l/m 0 min 0 min 7 W/m 16,7 km/h (3 Bft)
21.03.2015 07:46 3,7 C 2,8 C 96 % 1017,1 hPa 0,0 l/m 0 min 0 min 8 W/m 16,7 km/h (3 Bft)
21.03.2015 07:48 3,7 C 2,8 C 96 % 1017,1 hPa 0,0 l/m 0 min 0 min 9 W/m 12,6 km/h (3 Bft)
21.03.2015 07:50 3,7 C 2,8 C 96 % 1017,1 hPa 0,0 l/m 0 min 0 min 9 W/m 18,8 km/h (3 Bft)
21.03.2015 07:52 3,7 C 2,8 C 96 % 1017,1 hPa 0,0 l/m 0 min 0 min 9 W/m 20,9 km/h (4 Bft)
21.03.2015 07:54 3,7 C 2,8 C 96 % 1017,1 hPa 0,2 l/m 0 min 0 min 9 W/m 12,6 km/h (3 Bft)
21.03.2015 07:56 3,7 C 2,8 C 96 % 1017,1 hPa 0,0 l/m 0 min 0 min 9 W/m 16,7 km/h (3 Bft)
21.03.2015 07:58 3,7 C 2,8 C 96 % 1017,1 hPa 0,0 l/m 0 min 2 min 9 W/m 16,7 km/h (3 Bft)
21.03.2015 08:00 3,7 C 2,8 C 96 % 1017,2 hPa 0,0 l/m 0 min 0 min 9 W/m 16,7 km/h (3 Bft)
21.03.2015 08:02 3,7 C 2,8 C 96 % 1017,2 hPa 0,0 l/m 0 min 0 min 9 W/m 16,7 km/h (3 Bft)
21.03.2015 08:04 3,8 C 2,8 C 96 % 1017,2 hPa 0,0 l/m 0 min 0 min 10 W/m 16,7 km/h (3 Bft)
21.03.2015 08:06 3,8 C 2,8 C 96 % 1017,2 hPa 0,0 l/m 0 min 0 min 11 W/m 12,6 km/h (3 Bft)
21.03.2015 08:08 3,8 C 2,8 C 96 % 1017,2 hPa 0,0 l/m 0 min 0 min 11 W/m 16,7 km/h (3 Bft)
21.03.2015 08:10 3,8 C 2,8 C 96 % 1017,3 hPa 0,0 l/m 0 min 2 min 12 W/m 18,8 km/h (3 Bft)
21.03.2015 08:12 3,8 C 2,8 C 96 % 1017,2 hPa 0,0 l/m 0 min 0 min 12 W/m 18,8 km/h (3 Bft)
21.03.2015 08:14 3,8 C 2,8 C 96 % 1017,3 hPa 0,0 l/m 0 min 0 min 12 W/m 14,6 km/h (3 Bft)
21.03.2015 08:16 3,8 C 2,8 C 96 % 1017,2 hPa 0,0 l/m 0 min 0 min 11 W/m 18,8 km/h (3 Bft)
21.03.2015 08:18 3,8 C 2,8 C 96 % 1017,3 hPa 0,0 l/m 0 min 0 min 12 W/m 14,6 km/h (3 Bft)
21.03.2015 08:20 3,8 C 2,8 C 96 % 1017,3 hPa 0,0 l/m 0 min 0 min 13 W/m 12,6 km/h (3 Bft)
21.03.2015 08:22 3,9 C 2,8 C 96 % 1017,3 hPa 0,0 l/m 0 min 0 min 13 W/m 12,6 km/h (3 Bft)
21.03.2015 08:24 3,9 C 2,8 C 96 % 1017,2 hPa 0,0 l/m 0 min 0 min 11 W/m 18,8 km/h (3 Bft)
21.03.2015 08:26 3,9 C 2,8 C 96 % 1017,1 hPa 0,0 l/m 0 min 0 min 9 W/m 18,8 km/h (3 Bft)
21.03.2015 08:28 3,9 C 2,8 C 96 % 1017,2 hPa 0,0 l/m 0 min 0 min 10 W/m 16,7 km/h (3 Bft)
21.03.2015 08:30 3,9 C 2,8 C 96 % 1017,1 hPa 0,0 l/m 0 min 0 min 31 W/m 12,6 km/h (3 Bft)
21.03.2015 08:32 3,9 C 3,3 C 96 % 1017,2 hPa 0,0 l/m 0 min 0 min 66 W/m 12,6 km/h (3 Bft)
21.03.2015 08:34 3,9 C 3,3 C 96 % 1017,2 hPa 0,0 l/m 0 min 0 min 82 W/m 14,6 km/h (3 Bft)
21.03.2015 08:36 4,0 C 3,3 C 96 % 1017,3 hPa 0,0 l/m 2 min 0 min 99 W/m 10,5 km/h (2 Bft)
21.03.2015 08:38 4,1 C 3,3 C 96 % 1017,2 hPa 0,0 l/m 0 min 0 min 84 W/m 14,6 km/h (3 Bft)
21.03.2015 08:40 4,1 C 3,3 C 96 % 1017,2 hPa 0,0 l/m 0 min 0 min 56 W/m 14,6 km/h (3 Bft)
21.03.2015 08:42 4,1 C 3,3 C 97 % 1017,3 hPa 0,0 l/m 0 min 0 min 39 W/m 14,6 km/h (3 Bft)
21.03.2015 08:44 4,2 C 3,3 C 97 % 1017,2 hPa 0,0 l/m 0 min 0 min 47 W/m 16,7 km/h (3 Bft)
21.03.2015 08:46 4,2 C 3,3 C 96 % 1017,3 hPa 0,0 l/m 0 min 0 min 59 W/m 12,6 km/h (3 Bft)
21.03.2015 08:48 4,2 C 3,3 C 96 % 1017,3 hPa 0,0 l/m 0 min 0 min 73 W/m 14,6 km/h (3 Bft)
21.03.2015 08:50 4,2 C 3,9 C 97 % 1017,2 hPa 0,0 l/m 0 min 0 min 88 W/m 14,6 km/h (3 Bft)
21.03.2015 08:52 4,3 C 3,9 C 97 % 1017,3 hPa 0,0 l/m 0 min 0 min 102 W/m 14,6 km/h (3 Bft)
21.03.2015 08:54 4,3 C 3,9 C 97 % 1017,3 hPa 0,0 l/m 0 min 0 min 104 W/m 18,8 km/h (3 Bft)
21.03.2015 08:56 4,4 C 3,9 C 97 % 1017,3 hPa 0,0 l/m 0 min 0 min 113 W/m 16,7 km/h (3 Bft)
21.03.2015 08:58 4,4 C 3,9 C 97 % 1017,3 hPa 0,0 l/m 2 min 0 min 128 W/m 14,6 km/h (3 Bft)
21.03.2015 09:00 4,4 C 3,9 C 97 % 1017,4 hPa 0,0 l/m 0 min 0 min 107 W/m 16,7 km/h (3 Bft)
21.03.2015 09:02 4,5 C 3,9 C 97 % 1017,3 hPa 0,0 l/m 0 min 0 min 78 W/m 12,6 km/h (3 Bft)
21.03.2015 09:04 4,5 C 3,9 C 97 % 1017,4 hPa 0,0 l/m 0 min 0 min 70 W/m 12,6 km/h (3 Bft)
21.03.2015 09:06 4,6 C 3,9 C 97 % 1017,3 hPa 0,0 l/m 0 min 0 min 67 W/m 14,6 km/h (3 Bft)
21.03.2015 09:08 4,6 C 3,9 C 97 % 1017,3 hPa 0,0 l/m 0 min 0 min 58 W/m 12,6 km/h (3 Bft)
21.03.2015 09:10 4,6 C 3,9 C 97 % 1017,3 hPa 0,0 l/m 0 min 0 min 64 W/m 12,6 km/h (3 Bft)
21.03.2015 09:12 4,6 C 3,9 C 97 % 1017,3 hPa 0,0 l/m 0 min 0 min 71 W/m 8,4 km/h (2 Bft)
21.03.2015 09:14 4,6 C 3,9 C 97 % 1017,3 hPa 0,0 l/m 0 min 0 min 73 W/m 18,8 km/h (3 Bft)
21.03.2015 09:16 4,7 C 3,9 C 97 % 1017,3 hPa 0,0 l/m 0 min 0 min 79 W/m 14,6 km/h (3 Bft)
21.03.2015 09:18 4,7 C 3,9 C 97 % 1017,4 hPa 0,0 l/m 0 min 0 min 83 W/m 12,6 km/h (3 Bft)
21.03.2015 09:20 4,7 C 3,9 C 97 % 1017,3 hPa 0,0 l/m 0 min 0 min 83 W/m 18,8 km/h (3 Bft)
21.03.2015 09:22 4,7 C 4,4 C 97 % 1017,3 hPa 0,0 l/m 0 min 0 min 84 W/m 10,5 km/h (2 Bft)
21.03.2015 09:24 4,7 C 4,4 C 97 % 1017,3 hPa 0,0 l/m 0 min 0 min 94 W/m 16,7 km/h (3 Bft)
21.03.2015 09:26 4,8 C 4,4 C 97 % 1017,3 hPa 0,0 l/m 0 min 0 min 100 W/m 12,6 km/h (3 Bft)
21.03.2015 09:28 4,8 C 4,4 C 97 % 1017,2 hPa 0,0 l/m 0 min 0 min 117 W/m 12,6 km/h (3 Bft)
21.03.2015 09:30 4,9 C 4,4 C 97 % 1017,2 hPa 0,0 l/m 2 min 0 min 173 W/m 12,6 km/h (3 Bft)
21.03.2015 09:32 4,9 C 5,0 C 97 % 1017,2 hPa 0,0 l/m 2 min 0 min 213 W/m 6,3 km/h (2 Bft)
21.03.2015 09:34 5,0 C 5,0 C 97 % 1017,3 hPa 0,0 l/m 2 min 0 min 220 W/m 10,5 km/h (2 Bft)
21.03.2015 09:36 5,0 C 5,0 C 97 % 1017,2 hPa 0,0 l/m 2 min 0 min 237 W/m 16,7 km/h (3 Bft)
21.03.2015 09:38 5,1 C 5,0 C 97 % 1017,2 hPa 0,0 l/m 2 min 0 min 239 W/m 12,6 km/h (3 Bft)
21.03.2015 09:40 5,2 C 5,6 C 97 % 1017,2 hPa 0,0 l/m 2 min 0 min 235 W/m 12,6 km/h (3 Bft)
21.03.2015 09:42 5,3 C 5,6 C 97 % 1017,2 hPa 0,0 l/m 2 min 0 min 219 W/m 12,6 km/h (3 Bft)
21.03.2015 09:44 5,3 C 5,6 C 97 % 1017,2 hPa 0,0 l/m 2 min 0 min 228 W/m 10,5 km/h (2 Bft)
21.03.2015 09:46 5,4 C 5,6 C 97 % 1017,2 hPa 0,0 l/m 2 min 0 min 235 W/m 12,6 km/h (3 Bft)
21.03.2015 09:48 5,5 C 5,6 C 97 % 1017,2 hPa 0,0 l/m 2 min 0 min 230 W/m 6,3 km/h (2 Bft)
21.03.2015 09:50 5,6 C 5,6 C 97 % 1017,2 hPa 0,0 l/m 2 min 0 min 237 W/m 14,6 km/h (3 Bft)
21.03.2015 09:52 5,7 C 5,6 C 97 % 1017,2 hPa 0,0 l/m 2 min 0 min 298 W/m 12,6 km/h (3 Bft)
21.03.2015 09:54 5,7 C 5,6 C 97 % 1017,2 hPa 0,0 l/m 2 min 0 min 218 W/m 12,6 km/h (3 Bft)
21.03.2015 09:56 5,7 C 5,6 C 97 % 1017,1 hPa 0,0 l/m 2 min 0 min 326 W/m 16,7 km/h (3 Bft)
21.03.2015 09:58 5,8 C 5,6 C 97 % 1017,1 hPa 0,0 l/m 2 min 0 min 503 W/m 10,5 km/h (2 Bft)
21.03.2015 10:00 5,9 C 6,1 C 97 % 1017,0 hPa 0,0 l/m 2 min 0 min 455 W/m 12,6 km/h (3 Bft)
21.03.2015 10:02 6,0 C 6,1 C 98 % 1017,1 hPa 0,0 l/m 2 min 0 min 283 W/m 14,6 km/h (3 Bft)
21.03.2015 10:04 6,1 C 6,1 C 98 % 1017,1 hPa 0,0 l/m 2 min 0 min 233 W/m 23,0 km/h (4 Bft)
21.03.2015 10:06 6,2 C 6,1 C 98 % 1017,0 hPa 0,0 l/m 2 min 0 min 343 W/m 23,0 km/h (4 Bft)
21.03.2015 10:08 6,2 C 6,1 C 97 % 1017,0 hPa 0,0 l/m 2 min 0 min 481 W/m 18,8 km/h (3 Bft)
21.03.2015 10:10 6,3 C 6,7 C 97 % 1017,0 hPa 0,0 l/m 2 min 0 min 554 W/m 14,6 km/h (3 Bft)
21.03.2015 10:12 6,4 C 7,2 C 98 % 1016,9 hPa 0,0 l/m 2 min 0 min 473 W/m 18,8 km/h (3 Bft)
21.03.2015 10:14 6,5 C 7,2 C 98 % 1016,9 hPa 0,0 l/m 2 min 0 min 747 W/m 20,9 km/h (4 Bft)
21.03.2015 10:16 6,6 C 6,7 C 97 % 1016,9 hPa 0,0 l/m 2 min 0 min 251 W/m 23,0 km/h (4 Bft)
21.03.2015 10:18 6,6 C 6,7 C 97 % 1016,9 hPa 0,0 l/m 0 min 0 min 162 W/m 20,9 km/h (4 Bft)
21.03.2015 10:20 6,6 C 6,7 C 97 % 1016,9 hPa 0,0 l/m 2 min 0 min 199 W/m 14,6 km/h (3 Bft)
21.03.2015 10:22 6,7 C 6,7 C 98 % 1016,9 hPa 0,0 l/m 2 min 0 min 243 W/m 12,6 km/h (3 Bft)
21.03.2015 10:24 6,7 C 6,7 C 97 % 1016,9 hPa 0,0 l/m 2 min 0 min 227 W/m 14,6 km/h (3 Bft)
21.03.2015 10:26 6,7 C 6,7 C 97 % 1016,9 hPa 0,0 l/m 2 min 0 min 224 W/m 8,4 km/h (2 Bft)
21.03.2015 10:28 6,8 C 6,7 C 97 % 1016,9 hPa 0,0 l/m 0 min 0 min 166 W/m 12,6 km/h (3 Bft)
21.03.2015 10:30 6,8 C 6,7 C 97 % 1016,9 hPa 0,0 l/m 0 min 0 min 134 W/m 16,7 km/h (3 Bft)
21.03.2015 10:32 6,8 C 6,7 C 97 % 1016,9 hPa 0,0 l/m 0 min 0 min 118 W/m 14,6 km/h (3 Bft)
21.03.2015 10:34 6,8 C 6,1 C 97 % 1016,9 hPa 0,0 l/m 0 min 0 min 115 W/m 16,7 km/h (3 Bft)
21.03.2015 10:36 6,8 C 6,1 C 97 % 1016,9 hPa 0,0 l/m 0 min 0 min 120 W/m 14,6 km/h (3 Bft)
21.03.2015 10:38 6,8 C 6,1 C 97 % 1016,9 hPa 0,0 l/m 0 min 0 min 109 W/m 16,7 km/h (3 Bft)
21.03.2015 10:40 6,8 C 5,6 C 97 % 1016,9 hPa 0,0 l/m 0 min 0 min 82 W/m 18,8 km/h (3 Bft)
21.03.2015 10:42 6,7 C 5,6 C 96 % 1016,9 hPa 0,0 l/m 0 min 0 min 73 W/m 14,6 km/h (3 Bft)
21.03.2015 10:44 6,7 C 5,6 C 96 % 1016,9 hPa 0,0 l/m 0 min 0 min 59 W/m 10,5 km/h (2 Bft)
21.03.2015 10:46 6,7 C 5,6 C 96 % 1016,8 hPa 0,0 l/m 0 min 0 min 48 W/m 18,8 km/h (3 Bft)
21.03.2015 10:48 6,6 C 5,6 C 96 % 1016,8 hPa 0,0 l/m 0 min 0 min 52 W/m 18,8 km/h (3 Bft)
21.03.2015 10:50 6,6 C 5,6 C 95 % 1016,8 hPa 0,0 l/m 0 min 0 min 80 W/m 14,6 km/h (3 Bft)
21.03.2015 10:52 6,6 C 5,6 C 95 % 1016,8 hPa 0,0 l/m 0 min 0 min 118 W/m 20,9 km/h (4 Bft)
21.03.2015 10:54 6,6 C 5,6 C 95 % 1016,8 hPa 0,0 l/m 0 min 0 min 137 W/m 16,7 km/h (3 Bft)
21.03.2015 10:56 6,6 C 5,6 C 94 % 1016,7 hPa 0,0 l/m 0 min 0 min 129 W/m 14,6 km/h (3 Bft)
21.03.2015 10:58 6,6 C 6,1 C 94 % 1016,8 hPa 0,0 l/m 0 min 0 min 167 W/m 20,9 km/h (4 Bft)
21.03.2015 11:00 6,6 C 6,1 C 94 % 1016,8 hPa 0,0 l/m 0 min 0 min 172 W/m 18,8 km/h (3 Bft)
21.03.2015 11:02 6,7 C 6,1 C 94 % 1016,8 hPa 0,0 l/m 0 min 0 min 124 W/m 12,6 km/h (3 Bft)
21.03.2015 11:04 6,7 C 6,1 C 93 % 1016,7 hPa 0,0 l/m 0 min 0 min 126 W/m 12,6 km/h (3 Bft)
21.03.2015 11:06 6,7 C 6,1 C 93 % 1016,7 hPa 0,0 l/m 0 min 0 min 177 W/m 10,5 km/h (2 Bft)
21.03.2015 11:08 6,8 C 6,7 C 93 % 1016,8 hPa 0,0 l/m 0 min 0 min 186 W/m 14,6 km/h (3 Bft)
21.03.2015 11:10 6,8 C 6,7 C 93 % 1016,8 hPa 0,0 l/m 0 min 0 min 174 W/m 18,8 km/h (3 Bft)
21.03.2015 11:12 6,9 C 6,7 C 93 % 1016,8 hPa 0,0 l/m 0 min 0 min 131 W/m 16,7 km/h (3 Bft)
21.03.2015 11:14 6,9 C 6,1 C 93 % 1016,7 hPa 0,0 l/m 0 min 0 min 109 W/m 14,6 km/h (3 Bft)
21.03.2015 11:16 6,9 C 6,1 C 92 % 1016,7 hPa 0,0 l/m 0 min 0 min 102 W/m 10,5 km/h (2 Bft)
21.03.2015 11:18 7,0 C 6,1 C 92 % 1016,7 hPa 0,0 l/m 0 min 0 min 99 W/m 14,6 km/h (3 Bft)
21.03.2015 11:20 7,0 C 6,1 C 92 % 1016,8 hPa 0,0 l/m 0 min 0 min 122 W/m 16,7 km/h (3 Bft)
21.03.2015 11:22 7,1 C 6,1 C 91 % 1016,7 hPa 0,0 l/m 0 min 0 min 141 W/m 18,8 km/h (3 Bft)
21.03.2015 11:24 7,1 C 6,1 C 91 % 1016,7 hPa 0,0 l/m 0 min 0 min 128 W/m 20,9 km/h (4 Bft)
21.03.2015 11:26 7,1 C 6,1 C 91 % 1016,7 hPa 0,0 l/m 0 min 0 min 135 W/m 18,8 km/h (3 Bft)
21.03.2015 11:28 7,1 C 6,1 C 91 % 1016,6 hPa 0,0 l/m 0 min 0 min 161 W/m 20,9 km/h (4 Bft)
21.03.2015 11:30 7,2 C 6,1 C 90 % 1016,6 hPa 0,0 l/m 0 min 0 min 136 W/m 16,7 km/h (3 Bft)
21.03.2015 11:32 7,2 C 6,1 C 90 % 1016,5 hPa 0,0 l/m 0 min 0 min 105 W/m 23,0 km/h (4 Bft)
21.03.2015 11:34 7,2 C 6,1 C 90 % 1016,4 hPa 0,0 l/m 0 min 0 min 141 W/m 18,8 km/h (3 Bft)
21.03.2015 11:36 7,2 C 6,1 C 90 % 1016,4 hPa 0,0 l/m 2 min 0 min 200 W/m 25,1 km/h (4 Bft)
21.03.2015 11:38 7,2 C 6,7 C 90 % 1016,4 hPa 0,0 l/m 2 min 0 min 234 W/m 14,6 km/h (3 Bft)
21.03.2015 11:40 7,3 C 6,7 C 90 % 1016,4 hPa 0,0 l/m 0 min 2 min 164 W/m 16,7 km/h (3 Bft)
21.03.2015 11:42 7,3 C 6,1 C 89 % 1016,3 hPa 0,0 l/m 0 min 2 min 137 W/m 16,7 km/h (3 Bft)
21.03.2015 11:44 7,4 C 6,1 C 90 % 1016,3 hPa 0,0 l/m 0 min 2 min 137 W/m 12,6 km/h (3 Bft)
21.03.2015 11:46 7,4 C 6,1 C 90 % 1016,3 hPa 0,0 l/m 0 min 2 min 126 W/m 16,7 km/h (3 Bft)
21.03.2015 11:48 7,4 C 6,1 C 89 % 1016,3 hPa 0,0 l/m 0 min 2 min 130 W/m 20,9 km/h (4 Bft)
21.03.2015 11:50 7,4 C 6,1 C 89 % 1016,3 hPa 0,0 l/m 0 min 0 min 138 W/m 14,6 km/h (3 Bft)
21.03.2015 11:52 7,4 C 6,1 C 89 % 1016,2 hPa 0,0 l/m 0 min 2 min 152 W/m 14,6 km/h (3 Bft)
21.03.2015 11:54 7,4 C 6,1 C 89 % 1016,3 hPa 0,0 l/m 0 min 0 min 149 W/m 16,7 km/h (3 Bft)
21.03.2015 11:56 7,4 C 6,1 C 89 % 1016,2 hPa 0,0 l/m 0 min 2 min 148 W/m 20,9 km/h (4 Bft)
21.03.2015 11:58 7,4 C 6,1 C 89 % 1016,3 hPa 0,0 l/m 0 min 2 min 146 W/m 12,6 km/h (3 Bft)
21.03.2015 12:00 7,4 C 6,1 C 90 % 1016,2 hPa 0,0 l/m 0 min 2 min 114 W/m 16,7 km/h (3 Bft)
21.03.2015 12:02 7,4 C 5,6 C 90 % 1016,2 hPa 0,0 l/m 0 min 2 min 113 W/m 20,9 km/h (4 Bft)
21.03.2015 12:06 7,4 C 5,6 C 89 % 1016,2 hPa 0,0 l/m 0 min 2 min 103 W/m 18,8 km/h (3 Bft)
21.03.2015 12:08 7,3 C 5,6 C 89 % 1016,3 hPa 0,2 l/m 0 min 2 min 96 W/m 16,7 km/h (3 Bft)
21.03.2015 12:10 7,3 C 5,6 C 90 % 1016,2 hPa 0,0 l/m 0 min 2 min 109 W/m 14,6 km/h (3 Bft)
21.03.2015 12:12 7,4 C 5,6 C 90 % 1016,3 hPa 0,0 l/m 0 min 2 min 119 W/m 29,3 km/h (5 Bft)
21.03.2015 12:14 7,3 C 5,6 C 90 % 1016,2 hPa 0,0 l/m 0 min 2 min 108 W/m 18,8 km/h (3 Bft)
21.03.2015 12:16 7,3 C 5,6 C 90 % 1016,2 hPa 0,0 l/m 0 min 2 min 106 W/m 14,6 km/h (3 Bft)
21.03.2015 12:18 7,3 C 5,6 C 90 % 1016,2 hPa 0,2 l/m 0 min 2 min 119 W/m 29,3 km/h (5 Bft)
21.03.2015 12:20 7,2 C 5,6 C 90 % 1016,2 hPa 0,0 l/m 0 min 2 min 136 W/m 33,5 km/h (5 Bft)
21.03.2015 12:22 7,2 C 5,6 C 90 % 1016,2 hPa 0,0 l/m 0 min 2 min 149 W/m 20,9 km/h (4 Bft)
21.03.2015 12:24 7,2 C 5,6 C 90 % 1016,2 hPa 0,0 l/m 0 min 2 min 159 W/m 20,9 km/h (4 Bft)
21.03.2015 12:26 7,2 C 5,6 C 90 % 1016,2 hPa 0,2 l/m 0 min 2 min 153 W/m 20,9 km/h (4 Bft)
21.03.2015 12:28 7,1 C 5,6 C 91 % 1016,2 hPa 0,0 l/m 0 min 2 min 155 W/m 18,8 km/h (3 Bft)
21.03.2015 12:30 7,1 C 5,6 C 91 % 1016,2 hPa 0,0 l/m 0 min 2 min 175 W/m 25,1 km/h (4 Bft)
21.03.2015 12:32 7,1 C 5,6 C 91 % 1016,2 hPa 0,0 l/m 0 min 2 min 175 W/m 14,6 km/h (3 Bft)
21.03.2015 12:34 7,1 C 5,6 C 91 % 1016,2 hPa 0,0 l/m 0 min 2 min 146 W/m 20,9 km/h (4 Bft)
21.03.2015 12:36 7,0 C 5,6 C 91 % 1016,1 hPa 0,0 l/m 0 min 2 min 129 W/m 18,8 km/h (3 Bft)
21.03.2015 12:38 6,9 C 5,6 C 91 % 1016,1 hPa 0,0 l/m 0 min 2 min 131 W/m 12,6 km/h (3 Bft)
21.03.2015 12:40 6,9 C 5,6 C 91 % 1016,2 hPa 0,0 l/m 0 min 2 min 124 W/m 12,6 km/h (3 Bft)
21.03.2015 12:42 6,9 C 5,6 C 91 % 1016,1 hPa 0,0 l/m 0 min 2 min 97 W/m 14,6 km/h (3 Bft)
21.03.2015 12:44 6,9 C 5,0 C 92 % 1016,1 hPa 0,2 l/m 0 min 2 min 84 W/m 12,6 km/h (3 Bft)
21.03.2015 12:46 6,9 C 5,0 C 92 % 1016,1 hPa 0,0 l/m 0 min 2 min 75 W/m 16,7 km/h (3 Bft)
21.03.2015 12:48 6,9 C 5,0 C 92 % 1016,1 hPa 0,0 l/m 0 min 2 min 83 W/m 8,4 km/h (2 Bft)
21.03.2015 12:50 6,8 C 5,0 C 92 % 1016,1 hPa 0,2 l/m 0 min 2 min 98 W/m 10,5 km/h (2 Bft)
21.03.2015 12:52 6,8 C 5,6 C 92 % 1016,1 hPa 0,0 l/m 0 min 2 min 105 W/m 18,8 km/h (3 Bft)
21.03.2015 12:54 6,8 C 5,6 C 92 % 1016,1 hPa 0,0 l/m 0 min 2 min 102 W/m 14,6 km/h (3 Bft)
21.03.2015 12:56 6,8 C 5,6 C 92 % 1016,1 hPa 0,0 l/m 0 min 2 min 97 W/m 10,5 km/h (2 Bft)
21.03.2015 12:58 6,8 C 5,6 C 92 % 1016,0 hPa 0,0 l/m 0 min 2 min 97 W/m 14,6 km/h (3 Bft)
21.03.2015 13:00 6,8 C 5,6 C 92 % 1016,0 hPa 0,0 l/m 0 min 2 min 78 W/m 14,6 km/h (3 Bft)
21.03.2015 13:02 6,8 C 5,6 C 92 % 1016,0 hPa 0,0 l/m 0 min 2 min 71 W/m 12,6 km/h (3 Bft)
21.03.2015 13:04 6,8 C 5,6 C 93 % 1015,9 hPa 0,0 l/m 0 min 0 min 83 W/m 14,6 km/h (3 Bft)
21.03.2015 13:06 6,8 C 5,6 C 93 % 1015,9 hPa 0,0 l/m 0 min 0 min 84 W/m 10,5 km/h (2 Bft)
21.03.2015 13:08 6,8 C 5,6 C 93 % 1015,9 hPa 0,0 l/m 0 min 0 min 65 W/m 16,7 km/h (3 Bft)
21.03.2015 13:10 6,8 C 5,6 C 93 % 1015,8 hPa 0,0 l/m 0 min 0 min 70 W/m 14,6 km/h (3 Bft)
21.03.2015 13:12 6,8 C 5,6 C 93 % 1015,9 hPa 0,0 l/m 0 min 0 min 89 W/m 12,6 km/h (3 Bft)
21.03.2015 13:14 6,8 C 5,6 C 93 % 1015,8 hPa 0,0 l/m 0 min 0 min 105 W/m 10,5 km/h (2 Bft)
21.03.2015 13:16 6,8 C 6,1 C 93 % 1015,8 hPa 0,0 l/m 0 min 0 min 143 W/m 18,8 km/h (3 Bft)
21.03.2015 13:18 6,9 C 6,1 C 93 % 1015,8 hPa 0,0 l/m 0 min 0 min 175 W/m 23,0 km/h (4 Bft)
21.03.2015 13:20 6,9 C 6,1 C 93 % 1015,8 hPa 0,0 l/m 0 min 0 min 131 W/m 23,0 km/h (4 Bft)
21.03.2015 13:22 6,9 C 6,1 C 94 % 1015,8 hPa 0,0 l/m 0 min 2 min 192 W/m 25,1 km/h (4 Bft)
21.03.2015 13:24 6,9 C 6,1 C 94 % 1015,8 hPa 0,0 l/m 2 min 2 min 219 W/m 27,2 km/h (4 Bft)
21.03.2015 13:26 6,9 C 6,1 C 94 % 1015,8 hPa 0,0 l/m 2 min 2 min 229 W/m 23,0 km/h (4 Bft)
21.03.2015 13:28 7,0 C 6,7 C 94 % 1015,9 hPa 0,0 l/m 2 min 2 min 284 W/m 16,7 km/h (3 Bft)
21.03.2015 13:30 7,1 C 7,2 C 94 % 1015,9 hPa 0,0 l/m 2 min 2 min 272 W/m 23,0 km/h (4 Bft)
21.03.2015 13:32 7,2 C 7,2 C 94 % 1015,8 hPa 0,0 l/m 2 min 2 min 290 W/m 20,9 km/h (4 Bft)
21.03.2015 13:34 7,2 C 7,2 C 94 % 1015,8 hPa 0,0 l/m 2 min 2 min 270 W/m 20,9 km/h (4 Bft)
21.03.2015 13:36 7,3 C 7,2 C 94 % 1015,7 hPa 0,0 l/m 2 min 2 min 297 W/m 27,2 km/h (4 Bft)
21.03.2015 13:38 7,3 C 7,2 C 94 % 1015,7 hPa 0,0 l/m 2 min 2 min 368 W/m 25,1 km/h (4 Bft)
21.03.2015 13:40 7,4 C 7,2 C 94 % 1015,7 hPa 0,0 l/m 2 min 2 min 343 W/m 23,0 km/h (4 Bft)
21.03.2015 13:42 7,5 C 7,2 C 94 % 1015,7 hPa 0,0 l/m 2 min 0 min 303 W/m 25,1 km/h (4 Bft)
21.03.2015 13:44 7,6 C 7,2 C 94 % 1015,7 hPa 0,0 l/m 2 min 0 min 223 W/m 25,1 km/h (4 Bft)
21.03.2015 13:46 7,6 C 6,7 C 94 % 1015,7 hPa 0,0 l/m 0 min 2 min 164 W/m 27,2 km/h (4 Bft)
21.03.2015 13:48 7,6 C 6,7 C 94 % 1015,7 hPa 0,0 l/m 0 min 2 min 114 W/m 18,8 km/h (3 Bft)
21.03.2015 13:50 7,6 C 6,7 C 94 % 1015,7 hPa 0,0 l/m 0 min 2 min 133 W/m 29,3 km/h (5 Bft)
21.03.2015 13:52 7,6 C 6,7 C 94 % 1015,7 hPa 0,0 l/m 0 min 0 min 148 W/m 23,0 km/h (4 Bft)
21.03.2015 13:54 7,6 C 6,7 C 94 % 1015,7 hPa 0,0 l/m 0 min 0 min 157 W/m 18,8 km/h (3 Bft)
21.03.2015 13:56 7,6 C 6,7 C 94 % 1015,7 hPa 0,0 l/m 0 min 0 min 169 W/m 18,8 km/h (3 Bft)
21.03.2015 13:58 7,6 C 6,7 C 94 % 1015,7 hPa 0,0 l/m 0 min 0 min 163 W/m 16,7 km/h (3 Bft)
21.03.2015 14:00 7,6 C 6,7 C 94 % 1015,7 hPa 0,0 l/m 0 min 0 min 135 W/m 20,9 km/h (4 Bft)
21.03.2015 14:02 7,6 C 6,7 C 94 % 1015,7 hPa 0,0 l/m 0 min 0 min 127 W/m 14,6 km/h (3 Bft)
21.03.2015 14:04 7,6 C 6,7 C 94 % 1015,7 hPa 0,0 l/m 0 min 0 min 92 W/m 16,7 km/h (3 Bft)
21.03.2015 14:06 7,6 C 6,7 C 94 % 1015,7 hPa 0,0 l/m 0 min 0 min 97 W/m 20,9 km/h (4 Bft)
21.03.2015 14:08 7,6 C 6,7 C 93 % 1015,7 hPa 0,0 l/m 0 min 0 min 126 W/m 14,6 km/h (3 Bft)
21.03.2015 14:10 7,6 C 6,7 C 93 % 1015,7 hPa 0,0 l/m 0 min 0 min 114 W/m 14,6 km/h (3 Bft)
21.03.2015 14:12 7,6 C 6,7 C 93 % 1015,6 hPa 0,0 l/m 0 min 0 min 92 W/m 12,6 km/h (3 Bft)
21.03.2015 14:14 7,6 C 6,7 C 93 % 1015,6 hPa 0,0 l/m 0 min 0 min 89 W/m 16,7 km/h (3 Bft)
21.03.2015 14:16 7,6 C 6,7 C 93 % 1015,6 hPa 0,0 l/m 0 min 0 min 83 W/m 20,9 km/h (4 Bft)
21.03.2015 14:18 7,6 C 6,1 C 93 % 1015,7 hPa 0,0 l/m 0 min 0 min 50 W/m 18,8 km/h (3 Bft)
21.03.2015 14:20 7,6 C 5,6 C 93 % 1015,6 hPa 0,2 l/m 0 min 2 min 35 W/m 29,3 km/h (5 Bft)
21.03.2015 14:22 7,6 C 5,6 C 93 % 1015,7 hPa 0,0 l/m 0 min 2 min 32 W/m 29,3 km/h (5 Bft)
21.03.2015 14:24 7,5 C 5,6 C 93 % 1015,8 hPa 0,2 l/m 0 min 2 min 54 W/m 41,8 km/h (6 Bft)
21.03.2015 14:26 7,4 C 5,0 C 92 % 1015,9 hPa 0,0 l/m 0 min 2 min 52 W/m 31,4 km/h (5 Bft)
21.03.2015 14:28 7,4 C 5,0 C 92 % 1015,9 hPa 0,2 l/m 0 min 2 min 36 W/m 25,1 km/h (4 Bft)
21.03.2015 14:30 7,2 C 4,4 C 92 % 1015,9 hPa 0,2 l/m 0 min 2 min 24 W/m 23,0 km/h (4 Bft)
21.03.2015 14:32 7,2 C 4,4 C 92 % 1015,9 hPa 0,0 l/m 0 min 2 min 20 W/m 16,7 km/h (3 Bft)
21.03.2015 14:34 7,1 C 4,4 C 92 % 1015,8 hPa 0,0 l/m 0 min 2 min 26 W/m 14,6 km/h (3 Bft)
21.03.2015 14:36 7,0 C 4,4 C 91 % 1015,8 hPa 0,0 l/m 0 min 2 min 34 W/m 12,6 km/h (3 Bft)
21.03.2015 14:38 6,9 C 4,4 C 91 % 1015,8 hPa 0,0 l/m 0 min 2 min 46 W/m 14,6 km/h (3 Bft)
21.03.2015 14:40 6,9 C 5,0 C 91 % 1015,8 hPa 0,0 l/m 0 min 2 min 54 W/m 12,6 km/h (3 Bft)
21.03.2015 14:42 6,8 C 4,4 C 91 % 1015,8 hPa 0,0 l/m 0 min 2 min 50 W/m 8,4 km/h (2 Bft)
21.03.2015 14:44 6,7 C 4,4 C 91 % 1015,9 hPa 0,0 l/m 0 min 0 min 37 W/m 12,6 km/h (3 Bft)
21.03.2015 14:46 6,7 C 4,4 C 91 % 1015,9 hPa 0,2 l/m 0 min 2 min 30 W/m 12,6 km/h (3 Bft)
21.03.2015 14:48 6,7 C 4,4 C 91 % 1016,1 hPa 0,2 l/m 0 min 2 min 22 W/m 14,6 km/h (3 Bft)
21.03.2015 14:50 6,6 C 4,4 C 91 % 1016,1 hPa 0,2 l/m 0 min 2 min 19 W/m 16,7 km/h (3 Bft)
21.03.2015 14:52 6,6 C 4,4 C 91 % 1016,1 hPa 0,2 l/m 0 min 2 min 19 W/m 18,8 km/h (3 Bft)
21.03.2015 14:54 6,5 C 4,4 C 92 % 1016,1 hPa 0,2 l/m 0 min 2 min 21 W/m 12,6 km/h (3 Bft)
21.03.2015 14:56 6,4 C 4,4 C 92 % 1016,1 hPa 0,2 l/m 0 min 2 min 35 W/m 8,4 km/h (2 Bft)
21.03.2015 14:58 6,4 C 4,4 C 92 % 1016,1 hPa 0,0 l/m 0 min 2 min 58 W/m 6,3 km/h (2 Bft)
21.03.2015 15:00 6,4 C 5,0 C 92 % 1016,1 hPa 0,2 l/m 0 min 2 min 90 W/m 8,4 km/h (2 Bft)
21.03.2015 15:02 6,4 C 5,0 C 92 % 1016,1 hPa 0,0 l/m 0 min 2 min 98 W/m 8,4 km/h (2 Bft)
21.03.2015 15:04 6,4 C 5,0 C 92 % 1016,1 hPa 0,2 l/m 0 min 2 min 147 W/m 6,3 km/h (2 Bft)
21.03.2015 15:06 6,3 C 5,6 C 92 % 1016,1 hPa 0,0 l/m 2 min 2 min 192 W/m 6,3 km/h (2 Bft)
21.03.2015 15:08 6,4 C 5,6 C 92 % 1016,1 hPa 0,0 l/m 2 min 0 min 174 W/m 10,5 km/h (2 Bft)
21.03.2015 15:10 6,4 C 5,6 C 93 % 1016,1 hPa 0,0 l/m 2 min 0 min 196 W/m 8,4 km/h (2 Bft)
21.03.2015 15:12 6,4 C 6,1 C 93 % 1016,2 hPa 0,0 l/m 2 min 0 min 349 W/m 8,4 km/h (2 Bft)
21.03.2015 15:14 6,5 C 6,7 C 93 % 1016,2 hPa 0,0 l/m 2 min 0 min 593 W/m 14,6 km/h (3 Bft)
21.03.2015 15:16 6,7 C 6,7 C 93 % 1016,2 hPa 0,0 l/m 2 min 0 min 605 W/m 12,6 km/h (3 Bft)
21.03.2015 15:18 6,8 C 6,7 C 94 % 1016,1 hPa 0,0 l/m 2 min 0 min 499 W/m 10,5 km/h (2 Bft)
21.03.2015 15:20 6,8 C 6,7 C 94 % 1016,1 hPa 0,0 l/m 2 min 0 min 177 W/m 10,5 km/h (2 Bft)
21.03.2015 15:22 6,9 C 6,7 C 94 % 1016,1 hPa 0,0 l/m 0 min 0 min 118 W/m 6,3 km/h (2 Bft)
21.03.2015 15:24 6,9 C 6,1 C 94 % 1016,2 hPa 0,0 l/m 0 min 0 min 103 W/m 6,3 km/h (2 Bft)
21.03.2015 15:26 6,8 C 6,1 C 94 % 1016,2 hPa 0,0 l/m 0 min 0 min 113 W/m 8,4 km/h (2 Bft)
21.03.2015 15:28 6,8 C 6,1 C 94 % 1016,3 hPa 0,0 l/m 2 min 0 min 162 W/m 10,5 km/h (2 Bft)
21.03.2015 15:30 6,8 C 6,1 C 94 % 1016,3 hPa 0,0 l/m 2 min 0 min 167 W/m 10,5 km/h (2 Bft)
21.03.2015 15:32 6,8 C 6,7 C 94 % 1016,3 hPa 0,0 l/m 2 min 0 min 190 W/m 14,6 km/h (3 Bft)
21.03.2015 15:34 6,8 C 6,7 C 94 % 1016,3 hPa 0,0 l/m 2 min 0 min 230 W/m 14,6 km/h (3 Bft)
21.03.2015 15:36 6,8 C 6,1 C 94 % 1016,2 hPa 0,0 l/m 2 min 0 min 211 W/m 16,7 km/h (3 Bft)
21.03.2015 15:38 6,8 C 6,1 C 94 % 1016,3 hPa 0,0 l/m 2 min 0 min 176 W/m 16,7 km/h (3 Bft)
21.03.2015 15:40 6,9 C 6,1 C 94 % 1016,3 hPa 0,0 l/m 2 min 0 min 165 W/m 16,7 km/h (3 Bft)
21.03.2015 15:42 6,9 C 6,1 C 94 % 1016,3 hPa 0,0 l/m 2 min 0 min 221 W/m 12,6 km/h (3 Bft)
21.03.2015 15:44 6,9 C 6,1 C 94 % 1016,3 hPa 0,0 l/m 2 min 0 min 447 W/m 18,8 km/h (3 Bft)
21.03.2015 15:46 6,9 C 6,1 C 94 % 1016,3 hPa 0,0 l/m 2 min 0 min 437 W/m 14,6 km/h (3 Bft)
21.03.2015 15:48 7,0 C 6,7 C 94 % 1016,3 hPa 0,0 l/m 2 min 0 min 465 W/m 18,8 km/h (3 Bft)
21.03.2015 15:50 7,1 C 6,7 C 94 % 1016,3 hPa 0,0 l/m 2 min 0 min 454 W/m 20,9 km/h (4 Bft)
21.03.2015 15:52 7,1 C 6,1 C 93 % 1016,2 hPa 0,0 l/m 2 min 0 min 321 W/m 14,6 km/h (3 Bft)
21.03.2015 15:54 7,2 C 6,1 C 93 % 1016,3 hPa 0,0 l/m 2 min 0 min 207 W/m 14,6 km/h (3 Bft)
21.03.2015 15:56 7,3 C 6,7 C 93 % 1016,3 hPa 0,0 l/m 2 min 0 min 391 W/m 18,8 km/h (3 Bft)
21.03.2015 15:58 7,4 C 6,7 C 93 % 1016,3 hPa 0,0 l/m 2 min 0 min 384 W/m 14,6 km/h (3 Bft)
21.03.2015 16:00 7,5 C 6,7 C 93 % 1016,4 hPa 0,0 l/m 2 min 0 min 380 W/m 14,6 km/h (3 Bft)
21.03.2015 16:02 7,6 C 6,7 C 93 % 1016,4 hPa 0,0 l/m 2 min 0 min 400 W/m 16,7 km/h (3 Bft)
21.03.2015 16:04 7,7 C 6,7 C 93 % 1016,4 hPa 0,0 l/m 2 min 0 min 231 W/m 20,9 km/h (4 Bft)
21.03.2015 16:06 7,6 C 6,7 C 92 % 1016,4 hPa 0,0 l/m 2 min 0 min 136 W/m 16,7 km/h (3 Bft)
21.03.2015 16:08 7,6 C 6,1 C 92 % 1016,4 hPa 0,0 l/m 2 min 2 min 154 W/m 12,6 km/h (3 Bft)
21.03.2015 16:10 7,6 C 6,1 C 92 % 1016,5 hPa 0,0 l/m 2 min 0 min 132 W/m 14,6 km/h (3 Bft)
21.03.2015 16:12 7,6 C 6,1 C 92 % 1016,5 hPa 0,0 l/m 0 min 0 min 110 W/m 10,5 km/h (2 Bft)
21.03.2015 16:14 7,6 C 6,1 C 92 % 1016,4 hPa 0,0 l/m 0 min 0 min 104 W/m 10,5 km/h (2 Bft)
21.03.2015 16:16 7,6 C 6,1 C 92 % 1016,4 hPa 0,0 l/m 0 min 0 min 105 W/m 10,5 km/h (2 Bft)
21.03.2015 16:18 7,6 C 6,7 C 91 % 1016,4 hPa 0,0 l/m 0 min 0 min 107 W/m 10,5 km/h (2 Bft)
21.03.2015 16:20 7,6 C 6,7 C 91 % 1016,4 hPa 0,0 l/m 2 min 0 min 245 W/m 14,6 km/h (3 Bft)
21.03.2015 16:22 7,7 C 6,7 C 91 % 1016,5 hPa 0,0 l/m 2 min 0 min 223 W/m 14,6 km/h (3 Bft)
21.03.2015 16:24 7,7 C 7,2 C 91 % 1016,6 hPa 0,0 l/m 2 min 0 min 222 W/m 16,7 km/h (3 Bft)
21.03.2015 16:26 7,7 C 7,2 C 91 % 1016,5 hPa 0,0 l/m 2 min 0 min 358 W/m 14,6 km/h (3 Bft)
21.03.2015 16:28 7,7 C 6,7 C 91 % 1016,5 hPa 0,0 l/m 2 min 0 min 378 W/m 16,7 km/h (3 Bft)
21.03.2015 16:30 7,8 C 6,7 C 91 % 1016,5 hPa 0,0 l/m 2 min 0 min 132 W/m 14,6 km/h (3 Bft)
21.03.2015 16:32 7,8 C 6,1 C 91 % 1016,6 hPa 0,0 l/m 0 min 0 min 53 W/m 12,6 km/h (3 Bft)
21.03.2015 16:34 7,8 C 6,1 C 91 % 1016,5 hPa 0,0 l/m 0 min 0 min 64 W/m 8,4 km/h (2 Bft)
21.03.2015 16:36 7,8 C 6,1 C 91 % 1016,6 hPa 0,0 l/m 0 min 0 min 79 W/m 14,6 km/h (3 Bft)
21.03.2015 16:38 7,7 C 6,1 C 90 % 1016,5 hPa 0,0 l/m 0 min 0 min 49 W/m 12,6 km/h (3 Bft)
21.03.2015 16:40 7,7 C 6,1 C 90 % 1016,6 hPa 0,0 l/m 2 min 0 min 199 W/m 10,5 km/h (2 Bft)
21.03.2015 16:42 7,7 C 6,1 C 90 % 1016,5 hPa 0,0 l/m 2 min 0 min 174 W/m 8,4 km/h (2 Bft)
21.03.2015 16:44 7,7 C 6,1 C 90 % 1016,6 hPa 0,0 l/m 0 min 0 min 63 W/m 12,6 km/h (3 Bft)
21.03.2015 16:46 7,8 C 6,7 C 90 % 1016,6 hPa 0,0 l/m 2 min 0 min 202 W/m 10,5 km/h (2 Bft)
21.03.2015 16:48 7,8 C 6,7 C 90 % 1016,6 hPa 0,0 l/m 2 min 0 min 219 W/m 12,6 km/h (3 Bft)
21.03.2015 16:50 7,9 C 6,7 C 90 % 1016,6 hPa 0,0 l/m 2 min 0 min 121 W/m 14,6 km/h (3 Bft)
21.03.2015 16:52 7,9 C 6,7 C 90 % 1016,6 hPa 0,0 l/m 2 min 0 min 132 W/m 10,5 km/h (2 Bft)
21.03.2015 16:54 7,9 C 6,7 C 90 % 1016,5 hPa 0,0 l/m 2 min 0 min 160 W/m 10,5 km/h (2 Bft)
21.03.2015 16:56 8,0 C 6,7 C 90 % 1016,5 hPa 0,0 l/m 2 min 0 min 114 W/m 14,6 km/h (3 Bft)
21.03.2015 16:58 8,0 C 6,7 C 90 % 1016,5 hPa 0,0 l/m 2 min 0 min 124 W/m 16,7 km/h (3 Bft)
21.03.2015 17:00 7,9 C 6,7 C 89 % 1016,5 hPa 0,0 l/m 2 min 0 min 146 W/m 18,8 km/h (3 Bft)
21.03.2015 17:02 7,9 C 6,7 C 89 % 1016,5 hPa 0,0 l/m 2 min 0 min 179 W/m 20,9 km/h (4 Bft)
21.03.2015 17:04 7,9 C 6,7 C 88 % 1016,5 hPa 0,0 l/m 2 min 0 min 208 W/m 18,8 km/h (3 Bft)
21.03.2015 17:06 7,9 C 6,7 C 87 % 1016,5 hPa 0,0 l/m 2 min 0 min 204 W/m 23,0 km/h (4 Bft)
21.03.2015 17:08 7,9 C 6,7 C 87 % 1016,5 hPa 0,0 l/m 2 min 0 min 199 W/m 23,0 km/h (4 Bft)
21.03.2015 17:10 7,9 C 6,1 C 85 % 1016,6 hPa 0,0 l/m 2 min 0 min 106 W/m 16,7 km/h (3 Bft)
21.03.2015 17:12 7,9 C 6,1 C 85 % 1016,5 hPa 0,0 l/m 0 min 0 min 48 W/m 18,8 km/h (3 Bft)
21.03.2015 17:14 7,9 C 6,1 C 84 % 1016,6 hPa 0,0 l/m 0 min 0 min 55 W/m 20,9 km/h (4 Bft)
21.03.2015 17:16 7,9 C 6,1 C 83 % 1016,6 hPa 0,0 l/m 0 min 0 min 63 W/m 18,8 km/h (3 Bft)
21.03.2015 17:18 7,9 C 6,1 C 83 % 1016,6 hPa 0,0 l/m 2 min 0 min 158 W/m 16,7 km/h (3 Bft)
21.03.2015 17:20 7,9 C 6,1 C 83 % 1016,6 hPa 0,0 l/m 2 min 0 min 161 W/m 18,8 km/h (3 Bft)
21.03.2015 17:22 7,9 C 6,1 C 83 % 1016,5 hPa 0,0 l/m 2 min 0 min 159 W/m 14,6 km/h (3 Bft)
21.03.2015 17:24 7,9 C 6,1 C 83 % 1016,6 hPa 0,0 l/m 2 min 0 min 154 W/m 14,6 km/h (3 Bft)
21.03.2015 17:26 7,9 C 6,1 C 83 % 1016,6 hPa 0,0 l/m 2 min 0 min 146 W/m 12,6 km/h (3 Bft)
21.03.2015 17:28 8,0 C 6,1 C 83 % 1016,6 hPa 0,0 l/m 2 min 0 min 139 W/m 12,6 km/h (3 Bft)
21.03.2015 17:30 8,1 C 6,1 C 83 % 1016,5 hPa 0,0 l/m 2 min 0 min 132 W/m 14,6 km/h (3 Bft)
21.03.2015 17:32 8,1 C 6,7 C 84 % 1016,6 hPa 0,0 l/m 2 min 0 min 98 W/m 14,6 km/h (3 Bft)
21.03.2015 17:34 8,1 C 6,7 C 83 % 1016,7 hPa 0,0 l/m 2 min 0 min 131 W/m 16,7 km/h (3 Bft)
21.03.2015 17:36 8,2 C 6,7 C 83 % 1016,8 hPa 0,0 l/m 2 min 0 min 137 W/m 16,7 km/h (3 Bft)
21.03.2015 17:38 8,2 C 6,7 C 83 % 1016,8 hPa 0,0 l/m 2 min 0 min 131 W/m 18,8 km/h (3 Bft)
21.03.2015 17:40 8,2 C 6,7 C 83 % 1016,8 hPa 0,0 l/m 2 min 0 min 98 W/m 16,7 km/h (3 Bft)
21.03.2015 17:42 8,3 C 6,7 C 83 % 1016,8 hPa 0,0 l/m 2 min 0 min 117 W/m 14,6 km/h (3 Bft)
21.03.2015 17:44 8,3 C 6,7 C 83 % 1016,8 hPa 0,0 l/m 2 min 0 min 88 W/m 18,8 km/h (3 Bft)
21.03.2015 17:46 8,3 C 6,7 C 83 % 1016,9 hPa 0,0 l/m 2 min 0 min 81 W/m 16,7 km/h (3 Bft)
21.03.2015 17:48 8,3 C 6,7 C 83 % 1016,9 hPa 0,0 l/m 2 min 0 min 70 W/m 10,5 km/h (2 Bft)
21.03.2015 17:50 8,3 C 6,7 C 83 % 1016,9 hPa 0,0 l/m 2 min 0 min 60 W/m 8,4 km/h (2 Bft)
21.03.2015 17:52 8,3 C 6,7 C 83 % 1016,9 hPa 0,0 l/m 2 min 0 min 45 W/m 8,4 km/h (2 Bft)
21.03.2015 17:54 8,3 C 6,7 C 83 % 1016,9 hPa 0,0 l/m 0 min 0 min 32 W/m 8,4 km/h (2 Bft)
21.03.2015 17:56 8,3 C 6,7 C 83 % 1017,0 hPa 0,0 l/m 0 min 2 min 17 W/m 12,6 km/h (3 Bft)
21.03.2015 17:58 8,3 C 6,7 C 83 % 1017,2 hPa 0,0 l/m 0 min 0 min 11 W/m 23,0 km/h (4 Bft)
21.03.2015 18:00 8,2 C 6,1 C 83 % 1017,3 hPa 0,0 l/m 0 min 2 min 9 W/m 25,1 km/h (4 Bft)
21.03.2015 18:02 8,2 C 6,1 C 83 % 1017,3 hPa 0,0 l/m 0 min 2 min 11 W/m 20,9 km/h (4 Bft)
21.03.2015 18:06 8,1 C 5,0 C 84 % 1017,5 hPa 0,2 l/m 0 min 2 min 9 W/m 29,3 km/h (5 Bft)
21.03.2015 18:08 7,9 C 5,0 C 85 % 1017,5 hPa 0,4 l/m 0 min 2 min 6 W/m 20,9 km/h (4 Bft)
21.03.2015 18:10 7,9 C 4,4 C 85 % 1017,5 hPa 0,2 l/m 0 min 2 min 5 W/m 16,7 km/h (3 Bft)
21.03.2015 18:12 7,7 C 4,4 C 86 % 1017,6 hPa 0,0 l/m 0 min 2 min 5 W/m 16,7 km/h (3 Bft)
21.03.2015 18:14 7,6 C 4,4 C 86 % 1017,6 hPa 0,4 l/m 0 min 2 min 4 W/m 14,6 km/h (3 Bft)
21.03.2015 18:16 7,5 C 4,4 C 87 % 1017,6 hPa 0,0 l/m 0 min 2 min 2 W/m 18,8 km/h (3 Bft)
21.03.2015 18:18 7,3 C 4,4 C 87 % 1017,6 hPa 0,4 l/m 0 min 2 min 5 W/m 16,7 km/h (3 Bft)
21.03.2015 18:20 7,2 C 4,4 C 87 % 1017,5 hPa 0,0 l/m 0 min 2 min 6 W/m 12,6 km/h (3 Bft)
21.03.2015 18:22 7,1 C 4,4 C 88 % 1017,6 hPa 0,0 l/m 0 min 2 min 7 W/m 8,4 km/h (2 Bft)
21.03.2015 18:24 7,0 C 4,4 C 88 % 1017,6 hPa 0,2 l/m 0 min 2 min 8 W/m 8,4 km/h (2 Bft)
21.03.2015 18:26 6,9 C 4,4 C 88 % 1017,6 hPa 0,0 l/m 0 min 2 min 1 W/m 8,4 km/h (2 Bft)
21.03.2015 18:28 6,9 C 4,4 C 89 % 1017,8 hPa 0,0 l/m 0 min 2 min 0 W/m 14,6 km/h (3 Bft)
21.03.2015 18:30 6,8 C 4,4 C 89 % 1017,9 hPa 0,2 l/m 0 min 2 min 0 W/m 14,6 km/h (3 Bft)
21.03.2015 18:32 6,8 C 4,4 C 89 % 1017,9 hPa 0,0 l/m 0 min 2 min 0 W/m 20,9 km/h (4 Bft)
21.03.2015 18:34 6,7 C 4,4 C 90 % 1018,0 hPa 0,0 l/m 0 min 2 min 0 W/m 18,8 km/h (3 Bft)
21.03.2015 18:36 6,6 C 4,4 C 90 % 1018,0 hPa 0,2 l/m 0 min 2 min 3 W/m 18,8 km/h (3 Bft)
21.03.2015 18:38 6,5 C 4,4 C 90 % 1018,0 hPa 0,0 l/m 0 min 2 min 5 W/m 14,6 km/h (3 Bft)
21.03.2015 18:40 6,4 C 4,4 C 90 % 1017,9 hPa 0,0 l/m 0 min 2 min 5 W/m 18,8 km/h (3 Bft)
21.03.2015 18:42 6,4 C 4,4 C 90 % 1017,9 hPa 0,0 l/m 0 min 2 min 5 W/m 18,8 km/h (3 Bft)
21.03.2015 18:44 6,3 C 4,4 C 91 % 1018,0 hPa 0,0 l/m 0 min 2 min 1 W/m 16,7 km/h (3 Bft)
21.03.2015 18:46 6,3 C 4,4 C 91 % 1018,0 hPa 0,0 l/m 0 min 2 min 0 W/m 14,6 km/h (3 Bft)
21.03.2015 18:48 6,2 C 4,4 C 91 % 1018,0 hPa 0,0 l/m 0 min 0 min 0 W/m 14,6 km/h (3 Bft)
21.03.2015 18:50 6,2 C 4,4 C 91 % 1017,9 hPa 0,0 l/m 0 min 2 min 0 W/m 10,5 km/h (2 Bft)
21.03.2015 18:52 6,1 C 4,4 C 91 % 1018,0 hPa 0,0 l/m 0 min 0 min 0 W/m 8,4 km/h (2 Bft)
21.03.2015 18:54 6,1 C 4,4 C 92 % 1018,0 hPa 0,0 l/m 0 min 0 min 0 W/m 10,5 km/h (2 Bft)
21.03.2015 18:56 6,1 C 4,4 C 92 % 1018,0 hPa 0,0 l/m 0 min 0 min 0 W/m 8,4 km/h (2 Bft)
21.03.2015 18:58 6,1 C 4,4 C 92 % 1018,1 hPa 0,0 l/m 0 min 2 min 0 W/m 8,4 km/h (2 Bft)
21.03.2015 19:00 6,1 C 4,4 C 92 % 1018,1 hPa 0,0 l/m 0 min 2 min 0 W/m 6,3 km/h (2 Bft)
21.03.2015 19:02 6,1 C 4,4 C 92 % 1018,0 hPa 0,0 l/m 0 min 2 min 0 W/m 6,3 km/h (2 Bft)
21.03.2015 19:04 6,0 C 4,4 C 92 % 1018,0 hPa 0,0 l/m 0 min 2 min 0 W/m 4,2 km/h (1 Bft)
21.03.2015 19:06 6,0 C 4,4 C 92 % 1018,1 hPa 0,0 l/m 0 min 2 min 0 W/m 4,2 km/h (1 Bft)
21.03.2015 19:08 6,0 C 4,4 C 92 % 1018,2 hPa 0,0 l/m 0 min 2 min 0 W/m 2,1 km/h (1 Bft)
21.03.2015 19:10 6,0 C 4,4 C 92 % 1018,2 hPa 0,0 l/m 0 min 2 min 0 W/m 4,2 km/h (1 Bft)
21.03.2015 19:12 6,0 C 4,4 C 92 % 1018,2 hPa 0,0 l/m 0 min 2 min 0 W/m 6,3 km/h (2 Bft)
21.03.2015 19:14 5,9 C 4,4 C 92 % 1018,2 hPa 0,0 l/m 0 min 2 min 0 W/m 6,3 km/h (2 Bft)
21.03.2015 19:16 5,9 C 4,4 C 93 % 1018,3 hPa 0,0 l/m 0 min 0 min 0 W/m 6,3 km/h (2 Bft)
21.03.2015 19:18 5,9 C 4,4 C 93 % 1018,3 hPa 0,0 l/m 0 min 2 min 0 W/m 6,3 km/h (2 Bft)
21.03.2015 19:20 5,9 C 4,4 C 93 % 1018,3 hPa 0,0 l/m 0 min 0 min 0 W/m 4,2 km/h (1 Bft)
21.03.2015 19:22 5,9 C 4,4 C 93 % 1018,3 hPa 0,0 l/m 0 min 0 min 0 W/m 4,2 km/h (1 Bft)
21.03.2015 19:24 5,9 C 4,4 C 93 % 1018,3 hPa 0,0 l/m 0 min 2 min 0 W/m 4,2 km/h (1 Bft)
21.03.2015 19:26 5,9 C 4,4 C 93 % 1018,3 hPa 0,0 l/m 0 min 2 min 0 W/m 10,5 km/h (2 Bft)
21.03.2015 19:28 5,9 C 4,4 C 93 % 1018,3 hPa 0,0 l/m 0 min 2 min 0 W/m 8,4 km/h (2 Bft)
21.03.2015 19:30 5,9 C 4,4 C 93 % 1018,4 hPa 0,0 l/m 0 min 2 min 0 W/m 10,5 km/h (2 Bft)
21.03.2015 19:32 5,9 C 4,4 C 93 % 1018,3 hPa 0,2 l/m 0 min 2 min 0 W/m 8,4 km/h (2 Bft)
21.03.2015 19:34 5,9 C 4,4 C 93 % 1018,4 hPa 0,0 l/m 0 min 0 min 0 W/m 10,5 km/h (2 Bft)
21.03.2015 19:36 5,9 C 4,4 C 93 % 1018,4 hPa 0,0 l/m 0 min 0 min 0 W/m 10,5 km/h (2 Bft)
21.03.2015 19:38 5,9 C 4,4 C 93 % 1018,4 hPa 0,0 l/m 0 min 2 min 0 W/m 12,6 km/h (3 Bft)
21.03.2015 19:40 5,9 C 4,4 C 93 % 1018,4 hPa 0,0 l/m 0 min 0 min 0 W/m 12,6 km/h (3 Bft)
21.03.2015 19:42 5,9 C 4,4 C 93 % 1018,4 hPa 0,0 l/m 0 min 0 min 0 W/m 8,4 km/h (2 Bft)
21.03.2015 19:44 5,9 C 4,4 C 93 % 1018,5 hPa 0,0 l/m 0 min 0 min 0 W/m 12,6 km/h (3 Bft)
21.03.2015 19:46 5,9 C 4,4 C 93 % 1018,4 hPa 0,0 l/m 0 min 0 min 0 W/m 10,5 km/h (2 Bft)
21.03.2015 19:48 5,9 C 4,4 C 93 % 1018,4 hPa 0,0 l/m 0 min 0 min 0 W/m 10,5 km/h (2 Bft)
21.03.2015 19:50 5,9 C 4,4 C 93 % 1018,5 hPa 0,0 l/m 0 min 0 min 0 W/m 8,4 km/h (2 Bft)
21.03.2015 19:52 5,9 C 4,4 C 94 % 1018,4 hPa 0,0 l/m 0 min 0 min 0 W/m 8,4 km/h (2 Bft)
21.03.2015 19:54 5,9 C 4,4 C 94 % 1018,5 hPa 0,0 l/m 0 min 0 min 0 W/m 8,4 km/h (2 Bft)
21.03.2015 19:56 5,9 C 4,4 C 94 % 1018,5 hPa 0,0 l/m 0 min 0 min 0 W/m 8,4 km/h (2 Bft)
21.03.2015 19:58 6,0 C 4,4 C 94 % 1018,5 hPa 0,0 l/m 0 min 0 min 0 W/m 8,4 km/h (2 Bft)
21.03.2015 20:00 6,0 C 4,4 C 94 % 1018,5 hPa 0,0 l/m 0 min 0 min 0 W/m 14,6 km/h (3 Bft)
21.03.2015 20:02 6,0 C 4,4 C 94 % 1018,5 hPa 0,0 l/m 0 min 0 min 0 W/m 10,5 km/h (2 Bft)
21.03.2015 20:04 6,0 C 4,4 C 94 % 1018,6 hPa 0,0 l/m 0 min 0 min 0 W/m 10,5 km/h (2 Bft)
21.03.2015 20:06 6,0 C 4,4 C 94 % 1018,6 hPa 0,0 l/m 0 min 0 min 0 W/m 12,6 km/h (3 Bft)
21.03.2015 20:08 6,0 C 4,4 C 94 % 1018,6 hPa 0,0 l/m 0 min 0 min 0 W/m 10,5 km/h (2 Bft)
21.03.2015 20:10 6,0 C 4,4 C 94 % 1018,7 hPa 0,0 l/m 0 min 0 min 0 W/m 20,9 km/h (4 Bft)
21.03.2015 20:12 6,1 C 4,4 C 94 % 1018,7 hPa 0,0 l/m 0 min 0 min 0 W/m 14,6 km/h (3 Bft)
21.03.2015 20:14 6,1 C 4,4 C 94 % 1018,7 hPa 0,0 l/m 0 min 0 min 0 W/m 12,6 km/h (3 Bft)
21.03.2015 20:16 6,1 C 4,4 C 94 % 1018,7 hPa 0,0 l/m 0 min 0 min 0 W/m 14,6 km/h (3 Bft)
21.03.2015 20:18 6,1 C 4,4 C 94 % 1018,8 hPa 0,0 l/m 0 min 0 min 0 W/m 18,8 km/h (3 Bft)
21.03.2015 20:20 6,1 C 4,4 C 94 % 1018,8 hPa 0,0 l/m 0 min 0 min 0 W/m 23,0 km/h (4 Bft)
21.03.2015 20:22 6,1 C 4,4 C 94 % 1018,8 hPa 0,0 l/m 0 min 0 min 0 W/m 27,2 km/h (4 Bft)
21.03.2015 20:24 6,0 C 4,4 C 95 % 1018,9 hPa 0,0 l/m 0 min 0 min 0 W/m 20,9 km/h (4 Bft)
21.03.2015 20:26 6,0 C 4,4 C 95 % 1019,0 hPa 0,0 l/m 0 min 0 min 0 W/m 27,2 km/h (4 Bft)
21.03.2015 20:28 6,0 C 4,4 C 95 % 1019,0 hPa 0,0 l/m 0 min 0 min 0 W/m 25,1 km/h (4 Bft)
21.03.2015 20:30 6,0 C 4,4 C 95 % 1019,0 hPa 0,0 l/m 0 min 0 min 0 W/m 23,0 km/h (4 Bft)
21.03.2015 20:32 6,0 C 4,4 C 95 % 1019,1 hPa 0,0 l/m 0 min 0 min 0 W/m 12,6 km/h (3 Bft)
21.03.2015 20:34 6,0 C 4,4 C 94 % 1019,1 hPa 0,0 l/m 0 min 0 min 0 W/m 20,9 km/h (4 Bft)
21.03.2015 20:36 6,0 C 4,4 C 95 % 1019,1 hPa 0,0 l/m 0 min 0 min 0 W/m 20,9 km/h (4 Bft)
21.03.2015 20:38 6,0 C 4,4 C 95 % 1019,2 hPa 0,0 l/m 0 min 0 min 0 W/m 25,1 km/h (4 Bft)
21.03.2015 20:40 6,0 C 4,4 C 95 % 1019,2 hPa 0,0 l/m 0 min 0 min 0 W/m 27,2 km/h (4 Bft)
21.03.2015 20:42 6,0 C 4,4 C 94 % 1019,2 hPa 0,0 l/m 0 min 0 min 0 W/m 12,6 km/h (3 Bft)
21.03.2015 20:44 6,0 C 4,4 C 94 % 1019,3 hPa 0,0 l/m 0 min 0 min 0 W/m 14,6 km/h (3 Bft)
21.03.2015 20:46 6,0 C 4,4 C 94 % 1019,3 hPa 0,0 l/m 0 min 0 min 0 W/m 12,6 km/h (3 Bft)
21.03.2015 20:48 6,0 C 4,4 C 94 % 1019,3 hPa 0,0 l/m 0 min 0 min 0 W/m 18,8 km/h (3 Bft)
21.03.2015 20:50 6,0 C 4,4 C 94 % 1019,3 hPa 0,0 l/m 0 min 0 min 0 W/m 23,0 km/h (4 Bft)
21.03.2015 20:52 6,0 C 4,4 C 94 % 1019,3 hPa 0,0 l/m 0 min 0 min 0 W/m 23,0 km/h (4 Bft)
21.03.2015 20:54 6,0 C 4,4 C 94 % 1019,3 hPa 0,0 l/m 0 min 0 min 0 W/m 25,1 km/h (4 Bft)
21.03.2015 20:56 6,0 C 4,4 C 94 % 1019,4 hPa 0,0 l/m 0 min 0 min 0 W/m 25,1 km/h (4 Bft)
21.03.2015 20:58 5,9 C 4,4 C 94 % 1019,4 hPa 0,0 l/m 0 min 0 min 0 W/m 16,7 km/h (3 Bft)
21.03.2015 21:00 5,9 C 4,4 C 94 % 1019,5 hPa 0,0 l/m 0 min 0 min 0 W/m 18,8 km/h (3 Bft)
21.03.2015 21:02 5,9 C 4,4 C 94 % 1019,5 hPa 0,0 l/m 0 min 0 min 0 W/m 20,9 km/h (4 Bft)
21.03.2015 21:04 5,9 C 4,4 C 94 % 1019,7 hPa 0,0 l/m 0 min 0 min 0 W/m 16,7 km/h (3 Bft)
21.03.2015 21:06 5,9 C 4,4 C 94 % 1019,7 hPa 0,0 l/m 0 min 0 min 0 W/m 18,8 km/h (3 Bft)
21.03.2015 21:08 5,9 C 4,4 C 94 % 1019,7 hPa 0,0 l/m 0 min 0 min 0 W/m 16,7 km/h (3 Bft)
21.03.2015 21:10 5,9 C 4,4 C 94 % 1019,7 hPa 0,0 l/m 0 min 0 min 0 W/m 20,9 km/h (4 Bft)
21.03.2015 21:12 5,9 C 4,4 C 94 % 1019,7 hPa 0,0 l/m 0 min 0 min 0 W/m 16,7 km/h (3 Bft)
21.03.2015 21:14 5,9 C 4,4 C 94 % 1019,8 hPa 0,0 l/m 0 min 0 min 0 W/m 16,7 km/h (3 Bft)
21.03.2015 21:16 5,9 C 3,9 C 94 % 1019,9 hPa 0,0 l/m 0 min 0 min 0 W/m 23,0 km/h (4 Bft)
21.03.2015 21:18 5,8 C 3,9 C 94 % 1019,9 hPa 0,0 l/m 0 min 0 min 0 W/m 20,9 km/h (4 Bft)
21.03.2015 21:20 5,8 C 4,4 C 94 % 1020,0 hPa 0,0 l/m 0 min 0 min 0 W/m 20,9 km/h (4 Bft)
21.03.2015 21:22 5,8 C 3,9 C 94 % 1020,0 hPa 0,0 l/m 0 min 0 min 0 W/m 27,2 km/h (4 Bft)
21.03.2015 21:24 5,8 C 3,9 C 94 % 1020,0 hPa 0,0 l/m 0 min 0 min 0 W/m 27,2 km/h (4 Bft)
21.03.2015 21:26 5,8 C 3,9 C 94 % 1020,0 hPa 0,0 l/m 0 min 0 min 0 W/m 23,0 km/h (4 Bft)
21.03.2015 21:28 5,8 C 3,9 C 94 % 1020,1 hPa 0,0 l/m 0 min 0 min 0 W/m 20,9 km/h (4 Bft)
21.03.2015 21:30 5,8 C 3,9 C 94 % 1020,1 hPa 0,0 l/m 0 min 0 min 0 W/m 25,1 km/h (4 Bft)
21.03.2015 21:32 5,8 C 3,9 C 94 % 1020,1 hPa 0,0 l/m 0 min 0 min 0 W/m 18,8 km/h (3 Bft)
21.03.2015 21:34 5,8 C 3,9 C 94 % 1020,1 hPa 0,0 l/m 0 min 0 min 0 W/m 14,6 km/h (3 Bft)
21.03.2015 21:36 5,8 C 3,9 C 94 % 1020,1 hPa 0,0 l/m 0 min 0 min 0 W/m 23,0 km/h (4 Bft)
21.03.2015 21:38 5,7 C 3,9 C 94 % 1020,1 hPa 0,0 l/m 0 min 0 min 0 W/m 20,9 km/h (4 Bft)
21.03.2015 21:40 5,7 C 3,9 C 94 % 1020,1 hPa 0,0 l/m 0 min 2 min 0 W/m 18,8 km/h (3 Bft)
21.03.2015 21:42 5,7 C 3,9 C 94 % 1020,1 hPa 0,0 l/m 0 min 0 min 0 W/m 27,2 km/h (4 Bft)
21.03.2015 21:44 5,7 C 3,9 C 94 % 1020,1 hPa 0,0 l/m 0 min 0 min 0 W/m 18,8 km/h (3 Bft)
21.03.2015 21:46 5,7 C 3,9 C 94 % 1020,2 hPa 0,0 l/m 0 min 0 min 0 W/m 16,7 km/h (3 Bft)
21.03.2015 21:48 5,7 C 3,9 C 94 % 1020,2 hPa 0,0 l/m 0 min 0 min 0 W/m 18,8 km/h (3 Bft)
21.03.2015 21:50 5,6 C 3,9 C 94 % 1020,3 hPa 0,0 l/m 0 min 0 min 0 W/m 27,2 km/h (4 Bft)
21.03.2015 21:52 5,6 C 3,9 C 94 % 1020,3 hPa 0,0 l/m 0 min 0 min 0 W/m 23,0 km/h (4 Bft)
21.03.2015 21:54 5,6 C 3,9 C 94 % 1020,2 hPa 0,0 l/m 0 min 0 min 0 W/m 20,9 km/h (4 Bft)
21.03.2015 21:56 5,6 C 3,9 C 94 % 1020,3 hPa 0,0 l/m 0 min 0 min 0 W/m 20,9 km/h (4 Bft)
21.03.2015 21:58 5,5 C 3,9 C 94 % 1020,3 hPa 0,0 l/m 0 min 0 min 0 W/m 25,1 km/h (4 Bft)
21.03.2015 22:00 5,5 C 3,9 C 94 % 1020,3 hPa 0,0 l/m 0 min 0 min 0 W/m 18,8 km/h (3 Bft)
21.03.2015 22:02 5,5 C 3,9 C 94 % 1020,3 hPa 0,0 l/m 0 min 0 min 0 W/m 18,8 km/h (3 Bft)
21.03.2015 22:04 5,5 C 3,9 C 94 % 1020,3 hPa 0,0 l/m 0 min 0 min 0 W/m 23,0 km/h (4 Bft)
21.03.2015 22:06 5,4 C 3,9 C 94 % 1020,3 hPa 0,0 l/m 0 min 2 min 0 W/m 18,8 km/h (3 Bft)
21.03.2015 22:08 5,4 C 3,9 C 94 % 1020,4 hPa 0,0 l/m 0 min 0 min 0 W/m 23,0 km/h (4 Bft)
21.03.2015 22:10 5,4 C 3,9 C 95 % 1020,6 hPa 0,0 l/m 0 min 2 min 0 W/m 23,0 km/h (4 Bft)
21.03.2015 22:12 5,4 C 3,9 C 95 % 1020,5 hPa 0,0 l/m 0 min 0 min 0 W/m 20,9 km/h (4 Bft)
21.03.2015 22:14 5,4 C 3,9 C 95 % 1020,5 hPa 0,0 l/m 0 min 0 min 0 W/m 18,8 km/h (3 Bft)
21.03.2015 22:16 5,4 C 3,9 C 95 % 1020,6 hPa 0,0 l/m 0 min 2 min 0 W/m 18,8 km/h (3 Bft)
21.03.2015 22:18 5,4 C 3,9 C 95 % 1020,6 hPa 0,0 l/m 0 min 2 min 0 W/m 16,7 km/h (3 Bft)
21.03.2015 22:20 5,4 C 3,9 C 95 % 1020,5 hPa 0,0 l/m 0 min 2 min 0 W/m 16,7 km/h (3 Bft)
21.03.2015 22:22 5,3 C 3,9 C 95 % 1020,6 hPa 0,0 l/m 0 min 2 min 0 W/m 25,1 km/h (4 Bft)
21.03.2015 22:24 5,3 C 3,9 C 95 % 1020,6 hPa 0,0 l/m 0 min 2 min 0 W/m 18,8 km/h (3 Bft)
21.03.2015 22:26 5,3 C 3,9 C 95 % 1020,6 hPa 0,0 l/m 0 min 2 min 0 W/m 18,8 km/h (3 Bft)
21.03.2015 22:28 5,3 C 3,9 C 95 % 1020,7 hPa 0,0 l/m 0 min 0 min 0 W/m 23,0 km/h (4 Bft)
21.03.2015 22:30 5,3 C 3,9 C 95 % 1020,7 hPa 0,2 l/m 0 min 2 min 0 W/m 27,2 km/h (4 Bft)
21.03.2015 22:32 5,3 C 3,9 C 95 % 1020,7 hPa 0,0 l/m 0 min 2 min 0 W/m 20,9 km/h (4 Bft)
21.03.2015 22:34 5,3 C 3,9 C 95 % 1020,7 hPa 0,0 l/m 0 min 2 min 0 W/m 14,6 km/h (3 Bft)
21.03.2015 22:36 5,3 C 3,9 C 95 % 1020,7 hPa 0,0 l/m 0 min 0 min 0 W/m 16,7 km/h (3 Bft)
21.03.2015 22:38 5,3 C 3,9 C 95 % 1020,7 hPa 0,0 l/m 0 min 0 min 0 W/m 12,6 km/h (3 Bft)
21.03.2015 22:40 5,2 C 3,9 C 95 % 1020,7 hPa 0,0 l/m 0 min 0 min 0 W/m 14,6 km/h (3 Bft)
21.03.2015 22:42 5,2 C 3,9 C 95 % 1020,8 hPa 0,0 l/m 0 min 0 min 0 W/m 12,6 km/h (3 Bft)
21.03.2015 22:44 5,2 C 3,9 C 95 % 1020,8 hPa 0,0 l/m 0 min 0 min 0 W/m 18,8 km/h (3 Bft)
21.03.2015 22:46 5,2 C 3,9 C 95 % 1020,8 hPa 0,0 l/m 0 min 0 min 0 W/m 14,6 km/h (3 Bft)
21.03.2015 22:48 5,2 C 3,9 C 95 % 1020,8 hPa 0,0 l/m 0 min 0 min 0 W/m 20,9 km/h (4 Bft)
21.03.2015 22:50 5,2 C 3,9 C 95 % 1020,8 hPa 0,0 l/m 0 min 0 min 0 W/m 16,7 km/h (3 Bft)
21.03.2015 22:52 5,2 C 3,9 C 95 % 1020,8 hPa 0,0 l/m 0 min 0 min 0 W/m 18,8 km/h (3 Bft)
21.03.2015 22:54 5,2 C 3,9 C 95 % 1020,8 hPa 0,0 l/m 0 min 0 min 0 W/m 23,0 km/h (4 Bft)
21.03.2015 22:56 5,2 C 3,9 C 96 % 1020,8 hPa 0,0 l/m 0 min 0 min 0 W/m 23,0 km/h (4 Bft)
21.03.2015 22:58 5,2 C 3,9 C 95 % 1020,8 hPa 0,0 l/m 0 min 0 min 0 W/m 18,8 km/h (3 Bft)
21.03.2015 23:00 5,2 C 3,9 C 95 % 1020,8 hPa 0,0 l/m 0 min 0 min 0 W/m 14,6 km/h (3 Bft)
21.03.2015 23:02 5,2 C 3,9 C 95 % 1020,8 hPa 0,0 l/m 0 min 0 min 0 W/m 14,6 km/h (3 Bft)
21.03.2015 23:04 5,2 C 3,9 C 95 % 1020,8 hPa 0,0 l/m 0 min 0 min 0 W/m 20,9 km/h (4 Bft)
21.03.2015 23:06 5,2 C 3,9 C 95 % 1020,8 hPa 0,0 l/m 0 min 0 min 0 W/m 16,7 km/h (3 Bft)
21.03.2015 23:08 5,2 C 3,9 C 95 % 1020,8 hPa 0,0 l/m 0 min 0 min 0 W/m 16,7 km/h (3 Bft)
21.03.2015 23:10 5,1 C 3,9 C 95 % 1020,9 hPa 0,0 l/m 0 min 0 min 0 W/m 14,6 km/h (3 Bft)
21.03.2015 23:12 5,1 C 3,9 C 95 % 1020,8 hPa 0,0 l/m 0 min 0 min 0 W/m 18,8 km/h (3 Bft)
21.03.2015 23:14 5,1 C 3,9 C 95 % 1020,8 hPa 0,0 l/m 0 min 0 min 0 W/m 16,7 km/h (3 Bft)
21.03.2015 23:16 5,1 C 3,9 C 95 % 1020,9 hPa 0,0 l/m 0 min 0 min 0 W/m 18,8 km/h (3 Bft)
21.03.2015 23:18 5,1 C 3,9 C 95 % 1020,8 hPa 0,0 l/m 0 min 0 min 0 W/m 18,8 km/h (3 Bft)
21.03.2015 23:20 5,1 C 3,9 C 95 % 1020,9 hPa 0,0 l/m 0 min 0 min 0 W/m 25,1 km/h (4 Bft)
21.03.2015 23:22 5,1 C 3,9 C 95 % 1021,0 hPa 0,0 l/m 0 min 0 min 0 W/m 20,9 km/h (4 Bft)
21.03.2015 23:24 5,1 C 3,9 C 95 % 1021,1 hPa 0,0 l/m 0 min 0 min 0 W/m 16,7 km/h (3 Bft)
21.03.2015 23:26 5,1 C 3,9 C 95 % 1021,1 hPa 0,0 l/m 0 min 0 min 0 W/m 20,9 km/h (4 Bft)
21.03.2015 23:28 5,1 C 3,9 C 95 % 1021,1 hPa 0,0 l/m 0 min 0 min 0 W/m 20,9 km/h (4 Bft)
21.03.2015 23:30 5,1 C 3,9 C 95 % 1021,1 hPa 0,0 l/m 0 min 0 min 0 W/m 18,8 km/h (3 Bft)
21.03.2015 23:32 5,1 C 3,9 C 95 % 1021,2 hPa 0,0 l/m 0 min 0 min 0 W/m 20,9 km/h (4 Bft)
21.03.2015 23:34 5,1 C 3,9 C 95 % 1021,2 hPa 0,0 l/m 0 min 0 min 0 W/m 23,0 km/h (4 Bft)
21.03.2015 23:36 5,1 C 3,9 C 95 % 1021,2 hPa 0,0 l/m 0 min 0 min 0 W/m 20,9 km/h (4 Bft)
21.03.2015 23:38 5,1 C 3,9 C 95 % 1021,2 hPa 0,0 l/m 0 min 0 min 0 W/m 16,7 km/h (3 Bft)
21.03.2015 23:40 5,1 C 3,9 C 95 % 1021,2 hPa 0,0 l/m 0 min 0 min 0 W/m 16,7 km/h (3 Bft)
21.03.2015 23:42 5,1 C 3,9 C 95 % 1021,2 hPa 0,0 l/m 0 min 0 min 0 W/m 18,8 km/h (3 Bft)
21.03.2015 23:44 5,1 C 3,9 C 95 % 1021,3 hPa 0,0 l/m 0 min 0 min 0 W/m 16,7 km/h (3 Bft)
21.03.2015 23:46 5,1 C 3,9 C 95 % 1021,3 hPa 0,0 l/m 0 min 0 min 0 W/m 20,9 km/h (4 Bft)
21.03.2015 23:48 5,1 C 3,9 C 95 % 1021,3 hPa 0,0 l/m 0 min 0 min 0 W/m 20,9 km/h (4 Bft)
21.03.2015 23:50 5,1 C 3,9 C 95 % 1021,3 hPa 0,0 l/m 0 min 0 min 0 W/m 18,8 km/h (3 Bft)
21.03.2015 23:52 5,1 C 3,9 C 95 % 1021,3 hPa 0,0 l/m 0 min 0 min 0 W/m 20,9 km/h (4 Bft)
21.03.2015 23:54 5,1 C 3,9 C 96 % 1021,3 hPa 0,0 l/m 0 min 0 min 0 W/m 23,0 km/h (4 Bft)
21.03.2015 23:56 5,1 C 3,9 C 95 % 1021,4 hPa 0,0 l/m 0 min 0 min 0 W/m 23,0 km/h (4 Bft)
21.03.2015 23:58 5,1 C 3,9 C 96 % 1021,4 hPa 0,0 l/m 0 min 0 min 0 W/m 18,8 km/h (3 Bft)
_ Min-Zeit 00:00 00:00 17:16 14:12 - - - - 01:32
Minimum _ 2,6 C 1,7 C 83 % 1015,6 hPa - - - - 2,1 km/h (1 Bft)
_ Max-Zeit 17:42 10:12 10:02 23:56 18:08 08:36 05:04 10:14 14:24
Maximum _ 8,3 C 7,2 C 98 % 1021,4 hPa 0,4 l/m 2 min 2 min 747 W/m 41,8 km/h
N (6 Bft)
Durchschnitt _ 5,4 C 4,2 C 93 % 1017,8 hPa #6,6 l/m #3:44 h #5:36 h 132 W/m 14,8 km/h (3 Bft)
© 2015 W. Hausmann